<?xml version="1.0" encoding="UTF-8" standalone="no" ?>
<gpx xmlns="http://www.topografix.com/GPX/1/1" xmlns:xsi="http://www.w3.org/2001/XMLSchema-instance" xsi:schemaLocation="http://www.topografix.com/GPX/1/1 http://www.topografix.com/GPX/1/1/gpx.xsd" version="1.1" creator="VisuGPX - https://www.visugpx.com">
  <metadata>
    <name>lqùqls,q,qqqd</name>
    <desc><![CDATA[parcours sksnldskmld,smld,sd,ssmd,ssdsds]]></desc>
  </metadata>
  <trk>
    <name><![CDATA[9771053-VFK 2019]]></name>
    <trkseg>
      <trkpt lat="43.09117" lon="-0.05453">
        <ele>381</ele>
        <time>2019-04-03T20:07:17Z</time>
      </trkpt>
      <trkpt lat="43.09086" lon="-0.05434">
        <ele>380</ele>
        <time>2019-04-03T20:08:17Z</time>
      </trkpt>
      <trkpt lat="43.0904" lon="-0.05411">
        <ele>379</ele>
        <time>2019-04-03T20:09:17Z</time>
      </trkpt>
      <trkpt lat="43.0899" lon="-0.05381">
        <ele>379</ele>
        <time>2019-04-03T20:10:17Z</time>
      </trkpt>
      <trkpt lat="43.08966" lon="-0.05299">
        <ele>382</ele>
        <time>2019-04-03T20:11:17Z</time>
      </trkpt>
      <trkpt lat="43.08917" lon="-0.05106">
        <ele>388</ele>
        <time>2019-04-03T20:12:17Z</time>
      </trkpt>
      <trkpt lat="43.08896" lon="-0.05035">
        <ele>393</ele>
        <time>2019-04-03T20:13:17Z</time>
      </trkpt>
      <trkpt lat="43.08891" lon="-0.05001">
        <ele>396</ele>
        <time>2019-04-03T20:14:17Z</time>
      </trkpt>
      <trkpt lat="43.08888" lon="-0.04969">
        <ele>397</ele>
        <time>2019-04-03T20:15:17Z</time>
      </trkpt>
      <trkpt lat="43.08889" lon="-0.0495">
        <ele>398</ele>
        <time>2019-04-03T20:16:17Z</time>
      </trkpt>
      <trkpt lat="43.08895" lon="-0.04916">
        <ele>401</ele>
        <time>2019-04-03T20:17:17Z</time>
      </trkpt>
      <trkpt lat="43.08901" lon="-0.04893">
        <ele>402</ele>
        <time>2019-04-03T20:18:17Z</time>
      </trkpt>
      <trkpt lat="43.08906" lon="-0.04881">
        <ele>402</ele>
        <time>2019-04-03T20:19:17Z</time>
      </trkpt>
      <trkpt lat="43.08934" lon="-0.04839">
        <ele>404</ele>
        <time>2019-04-03T20:20:17Z</time>
      </trkpt>
      <trkpt lat="43.08949" lon="-0.04799">
        <ele>406</ele>
        <time>2019-04-03T20:21:17Z</time>
      </trkpt>
      <trkpt lat="43.08955" lon="-0.04779">
        <ele>407</ele>
        <time>2019-04-03T20:22:17Z</time>
      </trkpt>
      <trkpt lat="43.08955" lon="-0.04765">
        <ele>407</ele>
        <time>2019-04-03T20:23:17Z</time>
      </trkpt>
      <trkpt lat="43.08951" lon="-0.04752">
        <ele>408</ele>
        <time>2019-04-03T20:24:17Z</time>
      </trkpt>
      <trkpt lat="43.08939" lon="-0.04734">
        <ele>407</ele>
        <time>2019-04-03T20:25:17Z</time>
      </trkpt>
      <trkpt lat="43.08935" lon="-0.04715">
        <ele>407</ele>
        <time>2019-04-03T20:26:17Z</time>
      </trkpt>
      <trkpt lat="43.08934" lon="-0.04699">
        <ele>407</ele>
        <time>2019-04-03T20:27:17Z</time>
      </trkpt>
      <trkpt lat="43.08937" lon="-0.04688">
        <ele>407</ele>
        <time>2019-04-03T20:28:17Z</time>
      </trkpt>
      <trkpt lat="43.08961" lon="-0.04634">
        <ele>406</ele>
        <time>2019-04-03T20:29:17Z</time>
      </trkpt>
      <trkpt lat="43.08962" lon="-0.04613">
        <ele>406</ele>
        <time>2019-04-03T20:30:17Z</time>
      </trkpt>
      <trkpt lat="43.08939" lon="-0.04614">
        <ele>406</ele>
        <time>2019-04-03T20:31:17Z</time>
      </trkpt>
      <trkpt lat="43.08911" lon="-0.04641">
        <ele>406</ele>
        <time>2019-04-03T20:32:17Z</time>
      </trkpt>
      <trkpt lat="43.08939" lon="-0.04614">
        <ele>406</ele>
        <time>2019-04-03T20:33:17Z</time>
      </trkpt>
      <trkpt lat="43.08683" lon="-0.04608">
        <ele>406</ele>
        <time>2019-04-03T20:34:17Z</time>
      </trkpt>
      <trkpt lat="43.08651" lon="-0.04604">
        <ele>406</ele>
        <time>2019-04-03T20:35:17Z</time>
      </trkpt>
      <trkpt lat="43.08562" lon="-0.04586">
        <ele>406</ele>
        <time>2019-04-03T20:36:17Z</time>
      </trkpt>
      <trkpt lat="43.08428" lon="-0.04562">
        <ele>410</ele>
        <time>2019-04-03T20:37:17Z</time>
      </trkpt>
      <trkpt lat="43.08404" lon="-0.04565">
        <ele>409</ele>
        <time>2019-04-03T20:38:17Z</time>
      </trkpt>
      <trkpt lat="43.08382" lon="-0.04574">
        <ele>407</ele>
        <time>2019-04-03T20:39:17Z</time>
      </trkpt>
      <trkpt lat="43.08351" lon="-0.04582">
        <ele>404</ele>
        <time>2019-04-03T20:40:17Z</time>
      </trkpt>
      <trkpt lat="43.08344" lon="-0.04581">
        <ele>404</ele>
        <time>2019-04-03T20:41:17Z</time>
      </trkpt>
      <trkpt lat="43.08337" lon="-0.04576">
        <ele>404</ele>
        <time>2019-04-03T20:42:17Z</time>
      </trkpt>
      <trkpt lat="43.08329" lon="-0.04567">
        <ele>404</ele>
        <time>2019-04-03T20:43:17Z</time>
      </trkpt>
      <trkpt lat="43.08316" lon="-0.04528">
        <ele>406</ele>
        <time>2019-04-03T20:44:17Z</time>
      </trkpt>
      <trkpt lat="43.083" lon="-0.04495">
        <ele>405</ele>
        <time>2019-04-03T20:45:17Z</time>
      </trkpt>
      <trkpt lat="43.08294" lon="-0.04493">
        <ele>404</ele>
        <time>2019-04-03T20:46:17Z</time>
      </trkpt>
      <trkpt lat="43.08287" lon="-0.04489">
        <ele>403</ele>
        <time>2019-04-03T20:47:17Z</time>
      </trkpt>
      <trkpt lat="43.08282" lon="-0.04483">
        <ele>403</ele>
        <time>2019-04-03T20:48:17Z</time>
      </trkpt>
      <trkpt lat="43.08279" lon="-0.04474">
        <ele>404</ele>
        <time>2019-04-03T20:49:17Z</time>
      </trkpt>
      <trkpt lat="43.08278" lon="-0.0446">
        <ele>407</ele>
        <time>2019-04-03T20:50:17Z</time>
      </trkpt>
      <trkpt lat="43.08281" lon="-0.04449">
        <ele>409</ele>
        <time>2019-04-03T20:51:17Z</time>
      </trkpt>
      <trkpt lat="43.08287" lon="-0.04441">
        <ele>412</ele>
        <time>2019-04-03T20:52:17Z</time>
      </trkpt>
      <trkpt lat="43.08275" lon="-0.04426">
        <ele>413</ele>
        <time>2019-04-03T20:53:17Z</time>
      </trkpt>
      <trkpt lat="43.08262" lon="-0.04414">
        <ele>414</ele>
        <time>2019-04-03T20:54:17Z</time>
      </trkpt>
      <trkpt lat="43.08222" lon="-0.04347">
        <ele>422</ele>
        <time>2019-04-03T20:55:17Z</time>
      </trkpt>
      <trkpt lat="43.08149" lon="-0.04235">
        <ele>423</ele>
        <time>2019-04-03T20:56:17Z</time>
      </trkpt>
      <trkpt lat="43.08115" lon="-0.0419">
        <ele>428</ele>
        <time>2019-04-03T20:57:17Z</time>
      </trkpt>
      <trkpt lat="43.08092" lon="-0.04168">
        <ele>427</ele>
        <time>2019-04-03T20:58:17Z</time>
      </trkpt>
      <trkpt lat="43.08046" lon="-0.04142">
        <ele>424</ele>
        <time>2019-04-03T20:59:17Z</time>
      </trkpt>
      <trkpt lat="43.08026" lon="-0.04136">
        <ele>421</ele>
        <time>2019-04-03T21:00:17Z</time>
      </trkpt>
      <trkpt lat="43.0796" lon="-0.04124">
        <ele>411</ele>
        <time>2019-04-03T21:01:17Z</time>
      </trkpt>
      <trkpt lat="43.07741" lon="-0.04097">
        <ele>400</ele>
        <time>2019-04-03T21:02:17Z</time>
      </trkpt>
      <trkpt lat="43.07702" lon="-0.04094">
        <ele>400</ele>
        <time>2019-04-03T21:03:17Z</time>
      </trkpt>
      <trkpt lat="43.07699" lon="-0.041">
        <ele>400</ele>
        <time>2019-04-03T21:04:17Z</time>
      </trkpt>
      <trkpt lat="43.07695" lon="-0.04105">
        <ele>400</ele>
        <time>2019-04-03T21:05:17Z</time>
      </trkpt>
      <trkpt lat="43.07658" lon="-0.04104">
        <ele>399</ele>
        <time>2019-04-03T21:06:17Z</time>
      </trkpt>
      <trkpt lat="43.07655" lon="-0.0411">
        <ele>399</ele>
        <time>2019-04-03T21:07:17Z</time>
      </trkpt>
      <trkpt lat="43.07653" lon="-0.04121">
        <ele>398</ele>
        <time>2019-04-03T21:08:17Z</time>
      </trkpt>
      <trkpt lat="43.07607" lon="-0.04117">
        <ele>398</ele>
        <time>2019-04-03T21:09:17Z</time>
      </trkpt>
      <trkpt lat="43.07579" lon="-0.04107">
        <ele>399</ele>
        <time>2019-04-03T21:10:17Z</time>
      </trkpt>
      <trkpt lat="43.07516" lon="-0.04082">
        <ele>397</ele>
        <time>2019-04-03T21:11:17Z</time>
      </trkpt>
      <trkpt lat="43.07406" lon="-0.04029">
        <ele>402</ele>
        <time>2019-04-03T21:12:17Z</time>
      </trkpt>
      <trkpt lat="43.07376" lon="-0.04017">
        <ele>401</ele>
        <time>2019-04-03T21:13:17Z</time>
      </trkpt>
      <trkpt lat="43.07348" lon="-0.04011">
        <ele>398</ele>
        <time>2019-04-03T21:14:17Z</time>
      </trkpt>
      <trkpt lat="43.073" lon="-0.04007">
        <ele>398</ele>
        <time>2019-04-03T21:15:17Z</time>
      </trkpt>
      <trkpt lat="43.07243" lon="-0.04015">
        <ele>400</ele>
        <time>2019-04-03T21:16:17Z</time>
      </trkpt>
      <trkpt lat="43.07013" lon="-0.0408">
        <ele>401</ele>
        <time>2019-04-03T21:17:17Z</time>
      </trkpt>
      <trkpt lat="43.06952" lon="-0.04085">
        <ele>398</ele>
        <time>2019-04-03T21:18:17Z</time>
      </trkpt>
      <trkpt lat="43.06888" lon="-0.04074">
        <ele>396</ele>
        <time>2019-04-03T21:19:17Z</time>
      </trkpt>
      <trkpt lat="43.06697" lon="-0.04017">
        <ele>392</ele>
        <time>2019-04-03T21:20:17Z</time>
      </trkpt>
      <trkpt lat="43.06653" lon="-0.04008">
        <ele>392</ele>
        <time>2019-04-03T21:21:17Z</time>
      </trkpt>
      <trkpt lat="43.06616" lon="-0.04006">
        <ele>391</ele>
        <time>2019-04-03T21:22:17Z</time>
      </trkpt>
      <trkpt lat="43.06459" lon="-0.04007">
        <ele>395</ele>
        <time>2019-04-03T21:23:17Z</time>
      </trkpt>
      <trkpt lat="43.06288" lon="-0.04013">
        <ele>397</ele>
        <time>2019-04-03T21:24:17Z</time>
      </trkpt>
      <trkpt lat="43.0623" lon="-0.04018">
        <ele>400</ele>
        <time>2019-04-03T21:25:17Z</time>
      </trkpt>
      <trkpt lat="43.0617" lon="-0.0403">
        <ele>402</ele>
        <time>2019-04-03T21:26:17Z</time>
      </trkpt>
      <trkpt lat="43.06142" lon="-0.0404">
        <ele>402</ele>
        <time>2019-04-03T21:27:17Z</time>
      </trkpt>
      <trkpt lat="43.06042" lon="-0.04085">
        <ele>400</ele>
        <time>2019-04-03T21:28:17Z</time>
      </trkpt>
      <trkpt lat="43.05902" lon="-0.04156">
        <ele>398</ele>
        <time>2019-04-03T21:29:17Z</time>
      </trkpt>
      <trkpt lat="43.05267" lon="-0.0456">
        <ele>393</ele>
        <time>2019-04-03T21:30:17Z</time>
      </trkpt>
      <trkpt lat="43.05234" lon="-0.04582">
        <ele>393</ele>
        <time>2019-04-03T21:31:17Z</time>
      </trkpt>
      <trkpt lat="43.05201" lon="-0.0461">
        <ele>395</ele>
        <time>2019-04-03T21:32:17Z</time>
      </trkpt>
      <trkpt lat="43.05149" lon="-0.04664">
        <ele>396</ele>
        <time>2019-04-03T21:33:17Z</time>
      </trkpt>
      <trkpt lat="43.04702" lon="-0.05224">
        <ele>398</ele>
        <time>2019-04-03T21:34:17Z</time>
      </trkpt>
      <trkpt lat="43.04446" lon="-0.05548">
        <ele>399</ele>
        <time>2019-04-03T21:35:17Z</time>
      </trkpt>
      <trkpt lat="43.04225" lon="-0.0582">
        <ele>401</ele>
        <time>2019-04-03T21:36:17Z</time>
      </trkpt>
      <trkpt lat="43.04192" lon="-0.05859">
        <ele>400</ele>
        <time>2019-04-03T21:37:17Z</time>
      </trkpt>
      <trkpt lat="43.04159" lon="-0.0589">
        <ele>400</ele>
        <time>2019-04-03T21:38:17Z</time>
      </trkpt>
      <trkpt lat="43.04104" lon="-0.05936">
        <ele>403</ele>
        <time>2019-04-03T21:39:17Z</time>
      </trkpt>
      <trkpt lat="43.04035" lon="-0.05981">
        <ele>405</ele>
        <time>2019-04-03T21:40:17Z</time>
      </trkpt>
      <trkpt lat="43.03966" lon="-0.06013">
        <ele>406</ele>
        <time>2019-04-03T21:41:17Z</time>
      </trkpt>
      <trkpt lat="43.03851" lon="-0.06044">
        <ele>406</ele>
        <time>2019-04-03T21:42:17Z</time>
      </trkpt>
      <trkpt lat="43.0352" lon="-0.06125">
        <ele>415</ele>
        <time>2019-04-03T21:43:17Z</time>
      </trkpt>
      <trkpt lat="43.03398" lon="-0.06157">
        <ele>416</ele>
        <time>2019-04-03T21:44:17Z</time>
      </trkpt>
      <trkpt lat="43.02896" lon="-0.06324">
        <ele>411</ele>
        <time>2019-04-03T21:45:17Z</time>
      </trkpt>
      <trkpt lat="43.02812" lon="-0.06361">
        <ele>412</ele>
        <time>2019-04-03T21:46:17Z</time>
      </trkpt>
      <trkpt lat="43.02764" lon="-0.06392">
        <ele>411</ele>
        <time>2019-04-03T21:47:17Z</time>
      </trkpt>
      <trkpt lat="43.02732" lon="-0.06417">
        <ele>410</ele>
        <time>2019-04-03T21:48:17Z</time>
      </trkpt>
      <trkpt lat="43.0269" lon="-0.06461">
        <ele>411</ele>
        <time>2019-04-03T21:49:17Z</time>
      </trkpt>
      <trkpt lat="43.02649" lon="-0.06513">
        <ele>409</ele>
        <time>2019-04-03T21:50:17Z</time>
      </trkpt>
      <trkpt lat="43.02623" lon="-0.06555">
        <ele>408</ele>
        <time>2019-04-03T21:51:17Z</time>
      </trkpt>
      <trkpt lat="43.02586" lon="-0.06629">
        <ele>406</ele>
        <time>2019-04-03T21:52:17Z</time>
      </trkpt>
      <trkpt lat="43.02573" lon="-0.06661">
        <ele>407</ele>
        <time>2019-04-03T21:53:17Z</time>
      </trkpt>
      <trkpt lat="43.02556" lon="-0.06724">
        <ele>408</ele>
        <time>2019-04-03T21:54:17Z</time>
      </trkpt>
      <trkpt lat="43.02461" lon="-0.07095">
        <ele>410</ele>
        <time>2019-04-03T21:55:17Z</time>
      </trkpt>
      <trkpt lat="43.02372" lon="-0.07468">
        <ele>422</ele>
        <time>2019-04-03T21:56:17Z</time>
      </trkpt>
      <trkpt lat="43.02278" lon="-0.07834">
        <ele>421</ele>
        <time>2019-04-03T21:57:17Z</time>
      </trkpt>
      <trkpt lat="43.02247" lon="-0.07965">
        <ele>416</ele>
        <time>2019-04-03T21:58:17Z</time>
      </trkpt>
      <trkpt lat="43.02234" lon="-0.08027">
        <ele>418</ele>
        <time>2019-04-03T21:59:17Z</time>
      </trkpt>
      <trkpt lat="43.02223" lon="-0.08127">
        <ele>418</ele>
        <time>2019-04-03T22:00:17Z</time>
      </trkpt>
      <trkpt lat="43.02221" lon="-0.08165">
        <ele>418</ele>
        <time>2019-04-03T22:01:17Z</time>
      </trkpt>
      <trkpt lat="43.02223" lon="-0.08327">
        <ele>414</ele>
        <time>2019-04-03T22:02:17Z</time>
      </trkpt>
      <trkpt lat="43.0222" lon="-0.08335">
        <ele>414</ele>
        <time>2019-04-03T22:03:17Z</time>
      </trkpt>
      <trkpt lat="43.02198" lon="-0.08379">
        <ele>416</ele>
        <time>2019-04-03T22:04:17Z</time>
      </trkpt>
      <trkpt lat="43.02195" lon="-0.08391">
        <ele>416</ele>
        <time>2019-04-03T22:05:17Z</time>
      </trkpt>
      <trkpt lat="43.02194" lon="-0.08405">
        <ele>417</ele>
        <time>2019-04-03T22:06:17Z</time>
      </trkpt>
      <trkpt lat="43.02197" lon="-0.08423">
        <ele>417</ele>
        <time>2019-04-03T22:07:17Z</time>
      </trkpt>
      <trkpt lat="43.02205" lon="-0.08438">
        <ele>417</ele>
        <time>2019-04-03T22:08:17Z</time>
      </trkpt>
      <trkpt lat="43.02233" lon="-0.08463">
        <ele>417</ele>
        <time>2019-04-03T22:09:17Z</time>
      </trkpt>
      <trkpt lat="43.02237" lon="-0.08472">
        <ele>417</ele>
        <time>2019-04-03T22:10:17Z</time>
      </trkpt>
      <trkpt lat="43.02238" lon="-0.08481">
        <ele>417</ele>
        <time>2019-04-03T22:11:17Z</time>
      </trkpt>
      <trkpt lat="43.02232" lon="-0.08523">
        <ele>416</ele>
        <time>2019-04-03T22:12:17Z</time>
      </trkpt>
      <trkpt lat="43.02086" lon="-0.09112">
        <ele>417</ele>
        <time>2019-04-03T22:13:17Z</time>
      </trkpt>
      <trkpt lat="43.02029" lon="-0.09348">
        <ele>416</ele>
        <time>2019-04-03T22:14:17Z</time>
      </trkpt>
      <trkpt lat="43.02008" lon="-0.0942">
        <ele>414</ele>
        <time>2019-04-03T22:15:17Z</time>
      </trkpt>
      <trkpt lat="43.01995" lon="-0.09456">
        <ele>415</ele>
        <time>2019-04-03T22:16:17Z</time>
      </trkpt>
      <trkpt lat="43.01961" lon="-0.09519">
        <ele>418</ele>
        <time>2019-04-03T22:17:17Z</time>
      </trkpt>
      <trkpt lat="43.01938" lon="-0.09553">
        <ele>418</ele>
        <time>2019-04-03T22:18:17Z</time>
      </trkpt>
      <trkpt lat="43.01926" lon="-0.09568">
        <ele>418</ele>
        <time>2019-04-03T22:19:17Z</time>
      </trkpt>
      <trkpt lat="43.01884" lon="-0.0961">
        <ele>420</ele>
        <time>2019-04-03T22:20:17Z</time>
      </trkpt>
      <trkpt lat="43.01861" lon="-0.09629">
        <ele>421</ele>
        <time>2019-04-03T22:21:17Z</time>
      </trkpt>
      <trkpt lat="43.01842" lon="-0.09642">
        <ele>422</ele>
        <time>2019-04-03T22:22:17Z</time>
      </trkpt>
      <trkpt lat="43.01787" lon="-0.0967">
        <ele>424</ele>
        <time>2019-04-03T22:23:17Z</time>
      </trkpt>
      <trkpt lat="43.01728" lon="-0.09689">
        <ele>428</ele>
        <time>2019-04-03T22:24:17Z</time>
      </trkpt>
      <trkpt lat="43.0156" lon="-0.09734">
        <ele>424</ele>
        <time>2019-04-03T22:25:17Z</time>
      </trkpt>
      <trkpt lat="43.01386" lon="-0.09774">
        <ele>428</ele>
        <time>2019-04-03T22:26:17Z</time>
      </trkpt>
      <trkpt lat="43.01196" lon="-0.09791">
        <ele>432</ele>
        <time>2019-04-03T22:27:17Z</time>
      </trkpt>
      <trkpt lat="43.0115" lon="-0.09793">
        <ele>432</ele>
        <time>2019-04-03T22:28:17Z</time>
      </trkpt>
      <trkpt lat="43.01095" lon="-0.09786">
        <ele>432</ele>
        <time>2019-04-03T22:29:17Z</time>
      </trkpt>
      <trkpt lat="43.01064" lon="-0.09778">
        <ele>432</ele>
        <time>2019-04-03T22:30:17Z</time>
      </trkpt>
      <trkpt lat="43.01035" lon="-0.09769">
        <ele>432</ele>
        <time>2019-04-03T22:31:17Z</time>
      </trkpt>
      <trkpt lat="43.01013" lon="-0.09758">
        <ele>432</ele>
        <time>2019-04-03T22:32:17Z</time>
      </trkpt>
      <trkpt lat="43.00986" lon="-0.0974">
        <ele>431</ele>
        <time>2019-04-03T22:33:17Z</time>
      </trkpt>
      <trkpt lat="43.00959" lon="-0.09719">
        <ele>432</ele>
        <time>2019-04-03T22:34:17Z</time>
      </trkpt>
      <trkpt lat="43.00865" lon="-0.09616">
        <ele>433</ele>
        <time>2019-04-03T22:35:17Z</time>
      </trkpt>
      <trkpt lat="43.00722" lon="-0.0944">
        <ele>434</ele>
        <time>2019-04-03T22:36:17Z</time>
      </trkpt>
      <trkpt lat="43.00483" lon="-0.09153">
        <ele>434</ele>
        <time>2019-04-03T22:37:17Z</time>
      </trkpt>
      <trkpt lat="43.00458" lon="-0.09127">
        <ele>433</ele>
        <time>2019-04-03T22:38:17Z</time>
      </trkpt>
      <trkpt lat="43.00431" lon="-0.09104">
        <ele>432</ele>
        <time>2019-04-03T22:39:17Z</time>
      </trkpt>
      <trkpt lat="43.00397" lon="-0.09077">
        <ele>432</ele>
        <time>2019-04-03T22:40:17Z</time>
      </trkpt>
      <trkpt lat="43.00261" lon="-0.08982">
        <ele>433</ele>
        <time>2019-04-03T22:41:17Z</time>
      </trkpt>
      <trkpt lat="43.00254" lon="-0.08974">
        <ele>432</ele>
        <time>2019-04-03T22:42:17Z</time>
      </trkpt>
      <trkpt lat="43.00227" lon="-0.08958">
        <ele>433</ele>
        <time>2019-04-03T22:43:17Z</time>
      </trkpt>
      <trkpt lat="42.99885" lon="-0.08724">
        <ele>431</ele>
        <time>2019-04-03T22:44:17Z</time>
      </trkpt>
      <trkpt lat="42.99781" lon="-0.08648">
        <ele>429</ele>
        <time>2019-04-03T22:45:17Z</time>
      </trkpt>
      <trkpt lat="42.99591" lon="-0.08518">
        <ele>429</ele>
        <time>2019-04-03T22:46:17Z</time>
      </trkpt>
      <trkpt lat="42.99538" lon="-0.08482">
        <ele>430</ele>
        <time>2019-04-03T22:47:17Z</time>
      </trkpt>
      <trkpt lat="42.99456" lon="-0.08432">
        <ele>427</ele>
        <time>2019-04-03T22:48:17Z</time>
      </trkpt>
      <trkpt lat="42.99371" lon="-0.08387">
        <ele>427</ele>
        <time>2019-04-03T22:49:17Z</time>
      </trkpt>
      <trkpt lat="42.99258" lon="-0.08333">
        <ele>431</ele>
        <time>2019-04-03T22:50:17Z</time>
      </trkpt>
      <trkpt lat="42.98371" lon="-0.07931">
        <ele>436</ele>
        <time>2019-04-03T22:51:17Z</time>
      </trkpt>
      <trkpt lat="42.97838" lon="-0.07693">
        <ele>441</ele>
        <time>2019-04-03T22:52:17Z</time>
      </trkpt>
      <trkpt lat="42.97577" lon="-0.07596">
        <ele>444</ele>
        <time>2019-04-03T22:53:17Z</time>
      </trkpt>
      <trkpt lat="42.97118" lon="-0.07466">
        <ele>452</ele>
        <time>2019-04-03T22:54:17Z</time>
      </trkpt>
      <trkpt lat="42.9671" lon="-0.07355">
        <ele>462</ele>
        <time>2019-04-03T22:55:17Z</time>
      </trkpt>
      <trkpt lat="42.96667" lon="-0.07341">
        <ele>462</ele>
        <time>2019-04-03T22:56:17Z</time>
      </trkpt>
      <trkpt lat="42.96649" lon="-0.07333">
        <ele>462</ele>
        <time>2019-04-03T22:57:17Z</time>
      </trkpt>
      <trkpt lat="42.96618" lon="-0.07314">
        <ele>463</ele>
        <time>2019-04-03T22:58:17Z</time>
      </trkpt>
      <trkpt lat="42.96572" lon="-0.07279">
        <ele>463</ele>
        <time>2019-04-03T22:59:17Z</time>
      </trkpt>
      <trkpt lat="42.96556" lon="-0.07265">
        <ele>463</ele>
        <time>2019-04-03T23:00:17Z</time>
      </trkpt>
      <trkpt lat="42.96526" lon="-0.07228">
        <ele>464</ele>
        <time>2019-04-03T23:01:17Z</time>
      </trkpt>
      <trkpt lat="42.9651" lon="-0.07204">
        <ele>464</ele>
        <time>2019-04-03T23:02:17Z</time>
      </trkpt>
      <trkpt lat="42.96469" lon="-0.07138">
        <ele>464</ele>
        <time>2019-04-03T23:03:17Z</time>
      </trkpt>
      <trkpt lat="42.96267" lon="-0.06751">
        <ele>466</ele>
        <time>2019-04-03T23:04:17Z</time>
      </trkpt>
      <trkpt lat="42.96263" lon="-0.06749">
        <ele>466</ele>
        <time>2019-04-03T23:05:17Z</time>
      </trkpt>
      <trkpt lat="42.96257" lon="-0.06741">
        <ele>466</ele>
        <time>2019-04-03T23:06:17Z</time>
      </trkpt>
      <trkpt lat="42.96243" lon="-0.06714">
        <ele>466</ele>
        <time>2019-04-03T23:07:17Z</time>
      </trkpt>
      <trkpt lat="42.96229" lon="-0.067">
        <ele>466</ele>
        <time>2019-04-03T23:08:17Z</time>
      </trkpt>
      <trkpt lat="42.96213" lon="-0.06675">
        <ele>466</ele>
        <time>2019-04-03T23:09:17Z</time>
      </trkpt>
      <trkpt lat="42.96167" lon="-0.06613">
        <ele>466</ele>
        <time>2019-04-03T23:10:17Z</time>
      </trkpt>
      <trkpt lat="42.96159" lon="-0.06618">
        <ele>466</ele>
        <time>2019-04-03T23:11:17Z</time>
      </trkpt>
      <trkpt lat="42.96144" lon="-0.0661">
        <ele>467</ele>
        <time>2019-04-03T23:12:17Z</time>
      </trkpt>
      <trkpt lat="42.96125" lon="-0.06604">
        <ele>467</ele>
        <time>2019-04-03T23:13:17Z</time>
      </trkpt>
      <trkpt lat="42.96093" lon="-0.066">
        <ele>468</ele>
        <time>2019-04-03T23:14:17Z</time>
      </trkpt>
      <trkpt lat="42.96026" lon="-0.06603">
        <ele>468</ele>
        <time>2019-04-03T23:15:17Z</time>
      </trkpt>
      <trkpt lat="42.96005" lon="-0.06609">
        <ele>468</ele>
        <time>2019-04-03T23:16:17Z</time>
      </trkpt>
      <trkpt lat="42.95984" lon="-0.06618">
        <ele>468</ele>
        <time>2019-04-03T23:17:17Z</time>
      </trkpt>
      <trkpt lat="42.95904" lon="-0.06671">
        <ele>468</ele>
        <time>2019-04-03T23:18:17Z</time>
      </trkpt>
      <trkpt lat="42.95889" lon="-0.06686">
        <ele>469</ele>
        <time>2019-04-03T23:19:17Z</time>
      </trkpt>
      <trkpt lat="42.95855" lon="-0.06736">
        <ele>471</ele>
        <time>2019-04-03T23:20:17Z</time>
      </trkpt>
      <trkpt lat="42.95843" lon="-0.06741">
        <ele>471</ele>
        <time>2019-04-03T23:21:17Z</time>
      </trkpt>
      <trkpt lat="42.95841" lon="-0.06752">
        <ele>472</ele>
        <time>2019-04-03T23:22:17Z</time>
      </trkpt>
      <trkpt lat="42.95785" lon="-0.06894">
        <ele>477</ele>
        <time>2019-04-03T23:23:17Z</time>
      </trkpt>
      <trkpt lat="42.95764" lon="-0.06966">
        <ele>478</ele>
        <time>2019-04-03T23:24:17Z</time>
      </trkpt>
      <trkpt lat="42.9576" lon="-0.06975">
        <ele>479</ele>
        <time>2019-04-03T23:25:17Z</time>
      </trkpt>
      <trkpt lat="42.95751" lon="-0.06985">
        <ele>479</ele>
        <time>2019-04-03T23:26:17Z</time>
      </trkpt>
      <trkpt lat="42.95698" lon="-0.07019">
        <ele>480</ele>
        <time>2019-04-03T23:27:17Z</time>
      </trkpt>
      <trkpt lat="42.95618" lon="-0.07076">
        <ele>483</ele>
        <time>2019-04-03T23:28:17Z</time>
      </trkpt>
      <trkpt lat="42.95604" lon="-0.0709">
        <ele>484</ele>
        <time>2019-04-03T23:29:17Z</time>
      </trkpt>
      <trkpt lat="42.95593" lon="-0.07096">
        <ele>484</ele>
        <time>2019-04-03T23:30:17Z</time>
      </trkpt>
      <trkpt lat="42.95583" lon="-0.07096">
        <ele>484</ele>
        <time>2019-04-03T23:31:17Z</time>
      </trkpt>
      <trkpt lat="42.95538" lon="-0.07087">
        <ele>484</ele>
        <time>2019-04-03T23:32:17Z</time>
      </trkpt>
      <trkpt lat="42.95521" lon="-0.07086">
        <ele>483</ele>
        <time>2019-04-03T23:33:17Z</time>
      </trkpt>
      <trkpt lat="42.95495" lon="-0.07102">
        <ele>484</ele>
        <time>2019-04-03T23:34:17Z</time>
      </trkpt>
      <trkpt lat="42.9548" lon="-0.0712">
        <ele>488</ele>
        <time>2019-04-03T23:35:17Z</time>
      </trkpt>
      <trkpt lat="42.95472" lon="-0.07132">
        <ele>491</ele>
        <time>2019-04-03T23:36:17Z</time>
      </trkpt>
      <trkpt lat="42.95441" lon="-0.07104">
        <ele>491</ele>
        <time>2019-04-03T23:37:17Z</time>
      </trkpt>
      <trkpt lat="42.95318" lon="-0.07022">
        <ele>490</ele>
        <time>2019-04-03T23:38:17Z</time>
      </trkpt>
      <trkpt lat="42.95262" lon="-0.06996">
        <ele>490</ele>
        <time>2019-04-03T23:39:17Z</time>
      </trkpt>
      <trkpt lat="42.95239" lon="-0.06987">
        <ele>493</ele>
        <time>2019-04-03T23:40:17Z</time>
      </trkpt>
      <trkpt lat="42.95215" lon="-0.06987">
        <ele>499</ele>
        <time>2019-04-03T23:41:17Z</time>
      </trkpt>
      <trkpt lat="42.95186" lon="-0.06977">
        <ele>504</ele>
        <time>2019-04-03T23:42:17Z</time>
      </trkpt>
      <trkpt lat="42.95173" lon="-0.0697">
        <ele>505</ele>
        <time>2019-04-03T23:43:17Z</time>
      </trkpt>
      <trkpt lat="42.95164" lon="-0.06962">
        <ele>504</ele>
        <time>2019-04-03T23:44:17Z</time>
      </trkpt>
      <trkpt lat="42.95156" lon="-0.06946">
        <ele>501</ele>
        <time>2019-04-03T23:45:17Z</time>
      </trkpt>
      <trkpt lat="42.95124" lon="-0.06855">
        <ele>488</ele>
        <time>2019-04-03T23:46:17Z</time>
      </trkpt>
      <trkpt lat="42.95101" lon="-0.06815">
        <ele>485</ele>
        <time>2019-04-03T23:47:17Z</time>
      </trkpt>
      <trkpt lat="42.95091" lon="-0.06779">
        <ele>483</ele>
        <time>2019-04-03T23:48:17Z</time>
      </trkpt>
      <trkpt lat="42.95083" lon="-0.06778">
        <ele>484</ele>
        <time>2019-04-03T23:49:17Z</time>
      </trkpt>
      <trkpt lat="42.95074" lon="-0.0677">
        <ele>486</ele>
        <time>2019-04-03T23:50:17Z</time>
      </trkpt>
      <trkpt lat="42.95071" lon="-0.06763">
        <ele>486</ele>
        <time>2019-04-03T23:51:17Z</time>
      </trkpt>
      <trkpt lat="42.9507" lon="-0.06754">
        <ele>485</ele>
        <time>2019-04-03T23:52:17Z</time>
      </trkpt>
      <trkpt lat="42.95072" lon="-0.06744">
        <ele>484</ele>
        <time>2019-04-03T23:53:17Z</time>
      </trkpt>
      <trkpt lat="42.95059" lon="-0.06734">
        <ele>487</ele>
        <time>2019-04-03T23:54:17Z</time>
      </trkpt>
      <trkpt lat="42.95055" lon="-0.06728">
        <ele>488</ele>
        <time>2019-04-03T23:55:17Z</time>
      </trkpt>
      <trkpt lat="42.95047" lon="-0.06703">
        <ele>489</ele>
        <time>2019-04-03T23:56:17Z</time>
      </trkpt>
      <trkpt lat="42.95033" lon="-0.06645">
        <ele>491</ele>
        <time>2019-04-03T23:57:17Z</time>
      </trkpt>
      <trkpt lat="42.94996" lon="-0.06464">
        <ele>495</ele>
        <time>2019-04-03T23:58:17Z</time>
      </trkpt>
      <trkpt lat="42.9499" lon="-0.06439">
        <ele>497</ele>
        <time>2019-04-03T23:59:17Z</time>
      </trkpt>
      <trkpt lat="42.94947" lon="-0.06325">
        <ele>501</ele>
        <time>2019-04-04T00:00:17Z</time>
      </trkpt>
      <trkpt lat="42.9493" lon="-0.06293">
        <ele>499</ele>
        <time>2019-04-04T00:01:17Z</time>
      </trkpt>
      <trkpt lat="42.94899" lon="-0.06243">
        <ele>502</ele>
        <time>2019-04-04T00:02:17Z</time>
      </trkpt>
      <trkpt lat="42.94848" lon="-0.06136">
        <ele>506</ele>
        <time>2019-04-04T00:03:17Z</time>
      </trkpt>
      <trkpt lat="42.94805" lon="-0.06055">
        <ele>513</ele>
        <time>2019-04-04T00:04:17Z</time>
      </trkpt>
      <trkpt lat="42.94767" lon="-0.05995">
        <ele>506</ele>
        <time>2019-04-04T00:05:17Z</time>
      </trkpt>
      <trkpt lat="42.94749" lon="-0.05961">
        <ele>500</ele>
        <time>2019-04-04T00:06:17Z</time>
      </trkpt>
      <trkpt lat="42.94722" lon="-0.05891">
        <ele>507</ele>
        <time>2019-04-04T00:07:17Z</time>
      </trkpt>
      <trkpt lat="42.94713" lon="-0.05854">
        <ele>510</ele>
        <time>2019-04-04T00:08:17Z</time>
      </trkpt>
      <trkpt lat="42.94693" lon="-0.05755">
        <ele>515</ele>
        <time>2019-04-04T00:09:17Z</time>
      </trkpt>
      <trkpt lat="42.94685" lon="-0.05725">
        <ele>517</ele>
        <time>2019-04-04T00:10:17Z</time>
      </trkpt>
      <trkpt lat="42.94669" lon="-0.05692">
        <ele>515</ele>
        <time>2019-04-04T00:11:17Z</time>
      </trkpt>
      <trkpt lat="42.94551" lon="-0.05554">
        <ele>514</ele>
        <time>2019-04-04T00:12:17Z</time>
      </trkpt>
      <trkpt lat="42.94419" lon="-0.05395">
        <ele>511</ele>
        <time>2019-04-04T00:13:17Z</time>
      </trkpt>
      <trkpt lat="42.94389" lon="-0.05367">
        <ele>517</ele>
        <time>2019-04-04T00:14:17Z</time>
      </trkpt>
      <trkpt lat="42.94351" lon="-0.05341">
        <ele>513</ele>
        <time>2019-04-04T00:15:17Z</time>
      </trkpt>
      <trkpt lat="42.94281" lon="-0.05298">
        <ele>519</ele>
        <time>2019-04-04T00:16:17Z</time>
      </trkpt>
      <trkpt lat="42.94266" lon="-0.05285">
        <ele>520</ele>
        <time>2019-04-04T00:17:17Z</time>
      </trkpt>
      <trkpt lat="42.94239" lon="-0.05253">
        <ele>519</ele>
        <time>2019-04-04T00:18:17Z</time>
      </trkpt>
      <trkpt lat="42.94201" lon="-0.05216">
        <ele>535</ele>
        <time>2019-04-04T00:19:17Z</time>
      </trkpt>
      <trkpt lat="42.94178" lon="-0.05211">
        <ele>535</ele>
        <time>2019-04-04T00:20:17Z</time>
      </trkpt>
      <trkpt lat="42.94165" lon="-0.05214">
        <ele>532</ele>
        <time>2019-04-04T00:21:17Z</time>
      </trkpt>
      <trkpt lat="42.94152" lon="-0.05223">
        <ele>529</ele>
        <time>2019-04-04T00:22:17Z</time>
      </trkpt>
      <trkpt lat="42.94088" lon="-0.05285">
        <ele>525</ele>
        <time>2019-04-04T00:23:17Z</time>
      </trkpt>
      <trkpt lat="42.94053" lon="-0.05322">
        <ele>516</ele>
        <time>2019-04-04T00:24:17Z</time>
      </trkpt>
      <trkpt lat="42.94038" lon="-0.05331">
        <ele>515</ele>
        <time>2019-04-04T00:25:17Z</time>
      </trkpt>
      <trkpt lat="42.94024" lon="-0.05332">
        <ele>517</ele>
        <time>2019-04-04T00:26:17Z</time>
      </trkpt>
      <trkpt lat="42.94008" lon="-0.05328">
        <ele>519</ele>
        <time>2019-04-04T00:27:17Z</time>
      </trkpt>
      <trkpt lat="42.93993" lon="-0.05315">
        <ele>523</ele>
        <time>2019-04-04T00:28:17Z</time>
      </trkpt>
      <trkpt lat="42.9398" lon="-0.05293">
        <ele>528</ele>
        <time>2019-04-04T00:29:17Z</time>
      </trkpt>
      <trkpt lat="42.93957" lon="-0.0523">
        <ele>531</ele>
        <time>2019-04-04T00:30:17Z</time>
      </trkpt>
      <trkpt lat="42.93946" lon="-0.05189">
        <ele>532</ele>
        <time>2019-04-04T00:31:17Z</time>
      </trkpt>
      <trkpt lat="42.9394" lon="-0.05145">
        <ele>534</ele>
        <time>2019-04-04T00:32:17Z</time>
      </trkpt>
      <trkpt lat="42.93931" lon="-0.0511">
        <ele>535</ele>
        <time>2019-04-04T00:33:17Z</time>
      </trkpt>
      <trkpt lat="42.93917" lon="-0.05083">
        <ele>529</ele>
        <time>2019-04-04T00:34:17Z</time>
      </trkpt>
      <trkpt lat="42.93884" lon="-0.05037">
        <ele>541</ele>
        <time>2019-04-04T00:35:17Z</time>
      </trkpt>
      <trkpt lat="42.93862" lon="-0.05022">
        <ele>541</ele>
        <time>2019-04-04T00:36:17Z</time>
      </trkpt>
      <trkpt lat="42.93725" lon="-0.04947">
        <ele>546</ele>
        <time>2019-04-04T00:37:17Z</time>
      </trkpt>
      <trkpt lat="42.93705" lon="-0.04929">
        <ele>543</ele>
        <time>2019-04-04T00:38:17Z</time>
      </trkpt>
      <trkpt lat="42.93693" lon="-0.04908">
        <ele>541</ele>
        <time>2019-04-04T00:39:17Z</time>
      </trkpt>
      <trkpt lat="42.93682" lon="-0.04882">
        <ele>548</ele>
        <time>2019-04-04T00:40:17Z</time>
      </trkpt>
      <trkpt lat="42.93671" lon="-0.04863">
        <ele>551</ele>
        <time>2019-04-04T00:41:17Z</time>
      </trkpt>
      <trkpt lat="42.93662" lon="-0.04853">
        <ele>554</ele>
        <time>2019-04-04T00:42:17Z</time>
      </trkpt>
      <trkpt lat="42.93648" lon="-0.04849">
        <ele>558</ele>
        <time>2019-04-04T00:43:17Z</time>
      </trkpt>
      <trkpt lat="42.93593" lon="-0.04849">
        <ele>569</ele>
        <time>2019-04-04T00:44:17Z</time>
      </trkpt>
      <trkpt lat="42.93533" lon="-0.04858">
        <ele>579</ele>
        <time>2019-04-04T00:45:17Z</time>
      </trkpt>
      <trkpt lat="42.93514" lon="-0.04864">
        <ele>583</ele>
        <time>2019-04-04T00:46:17Z</time>
      </trkpt>
      <trkpt lat="42.93502" lon="-0.04871">
        <ele>585</ele>
        <time>2019-04-04T00:47:17Z</time>
      </trkpt>
      <trkpt lat="42.93489" lon="-0.04872">
        <ele>584</ele>
        <time>2019-04-04T00:48:17Z</time>
      </trkpt>
      <trkpt lat="42.93477" lon="-0.04868">
        <ele>583</ele>
        <time>2019-04-04T00:49:17Z</time>
      </trkpt>
      <trkpt lat="42.93468" lon="-0.0486">
        <ele>580</ele>
        <time>2019-04-04T00:50:17Z</time>
      </trkpt>
      <trkpt lat="42.93456" lon="-0.04842">
        <ele>575</ele>
        <time>2019-04-04T00:51:17Z</time>
      </trkpt>
      <trkpt lat="42.93445" lon="-0.04805">
        <ele>581</ele>
        <time>2019-04-04T00:52:17Z</time>
      </trkpt>
      <trkpt lat="42.93436" lon="-0.04784">
        <ele>586</ele>
        <time>2019-04-04T00:53:17Z</time>
      </trkpt>
      <trkpt lat="42.93424" lon="-0.04766">
        <ele>588</ele>
        <time>2019-04-04T00:54:17Z</time>
      </trkpt>
      <trkpt lat="42.93402" lon="-0.04742">
        <ele>588</ele>
        <time>2019-04-04T00:55:17Z</time>
      </trkpt>
      <trkpt lat="42.93316" lon="-0.04674">
        <ele>580</ele>
        <time>2019-04-04T00:56:17Z</time>
      </trkpt>
      <trkpt lat="42.93289" lon="-0.04659">
        <ele>572</ele>
        <time>2019-04-04T00:57:17Z</time>
      </trkpt>
      <trkpt lat="42.93273" lon="-0.04654">
        <ele>567</ele>
        <time>2019-04-04T00:58:17Z</time>
      </trkpt>
      <trkpt lat="42.93224" lon="-0.04624">
        <ele>570</ele>
        <time>2019-04-04T00:59:17Z</time>
      </trkpt>
      <trkpt lat="42.93186" lon="-0.04611">
        <ele>570</ele>
        <time>2019-04-04T01:00:17Z</time>
      </trkpt>
      <trkpt lat="42.93169" lon="-0.04608">
        <ele>568</ele>
        <time>2019-04-04T01:01:17Z</time>
      </trkpt>
      <trkpt lat="42.93158" lon="-0.04609">
        <ele>566</ele>
        <time>2019-04-04T01:02:17Z</time>
      </trkpt>
      <trkpt lat="42.93126" lon="-0.04615">
        <ele>560</ele>
        <time>2019-04-04T01:03:17Z</time>
      </trkpt>
      <trkpt lat="42.93111" lon="-0.04616">
        <ele>557</ele>
        <time>2019-04-04T01:04:17Z</time>
      </trkpt>
      <trkpt lat="42.93092" lon="-0.04608">
        <ele>556</ele>
        <time>2019-04-04T01:05:17Z</time>
      </trkpt>
      <trkpt lat="42.93077" lon="-0.04595">
        <ele>557</ele>
        <time>2019-04-04T01:06:17Z</time>
      </trkpt>
      <trkpt lat="42.93031" lon="-0.04535">
        <ele>563</ele>
        <time>2019-04-04T01:07:17Z</time>
      </trkpt>
      <trkpt lat="42.92999" lon="-0.0447">
        <ele>564</ele>
        <time>2019-04-04T01:08:17Z</time>
      </trkpt>
      <trkpt lat="42.92984" lon="-0.04427">
        <ele>578</ele>
        <time>2019-04-04T01:09:17Z</time>
      </trkpt>
      <trkpt lat="42.92974" lon="-0.04388">
        <ele>587</ele>
        <time>2019-04-04T01:10:17Z</time>
      </trkpt>
      <trkpt lat="42.92964" lon="-0.04368">
        <ele>589</ele>
        <time>2019-04-04T01:11:17Z</time>
      </trkpt>
      <trkpt lat="42.9293" lon="-0.04326">
        <ele>581</ele>
        <time>2019-04-04T01:12:17Z</time>
      </trkpt>
      <trkpt lat="42.9289" lon="-0.04272">
        <ele>592</ele>
        <time>2019-04-04T01:13:17Z</time>
      </trkpt>
      <trkpt lat="42.92865" lon="-0.04244">
        <ele>594</ele>
        <time>2019-04-04T01:14:17Z</time>
      </trkpt>
      <trkpt lat="42.92846" lon="-0.04231">
        <ele>594</ele>
        <time>2019-04-04T01:15:17Z</time>
      </trkpt>
      <trkpt lat="42.92774" lon="-0.04191">
        <ele>599</ele>
        <time>2019-04-04T01:16:17Z</time>
      </trkpt>
      <trkpt lat="42.92693" lon="-0.04166">
        <ele>596</ele>
        <time>2019-04-04T01:17:17Z</time>
      </trkpt>
      <trkpt lat="42.92635" lon="-0.04161">
        <ele>608</ele>
        <time>2019-04-04T01:18:17Z</time>
      </trkpt>
      <trkpt lat="42.92619" lon="-0.04164">
        <ele>612</ele>
        <time>2019-04-04T01:19:17Z</time>
      </trkpt>
      <trkpt lat="42.9261" lon="-0.0417">
        <ele>612</ele>
        <time>2019-04-04T01:20:17Z</time>
      </trkpt>
      <trkpt lat="42.92581" lon="-0.04206">
        <ele>605</ele>
        <time>2019-04-04T01:21:17Z</time>
      </trkpt>
      <trkpt lat="42.92569" lon="-0.04215">
        <ele>601</ele>
        <time>2019-04-04T01:22:17Z</time>
      </trkpt>
      <trkpt lat="42.92546" lon="-0.04214">
        <ele>603</ele>
        <time>2019-04-04T01:23:17Z</time>
      </trkpt>
      <trkpt lat="42.92534" lon="-0.04208">
        <ele>605</ele>
        <time>2019-04-04T01:24:17Z</time>
      </trkpt>
      <trkpt lat="42.92481" lon="-0.04167">
        <ele>610</ele>
        <time>2019-04-04T01:25:17Z</time>
      </trkpt>
      <trkpt lat="42.92447" lon="-0.04136">
        <ele>615</ele>
        <time>2019-04-04T01:26:17Z</time>
      </trkpt>
      <trkpt lat="42.9241" lon="-0.0409">
        <ele>624</ele>
        <time>2019-04-04T01:27:17Z</time>
      </trkpt>
      <trkpt lat="42.92401" lon="-0.04083">
        <ele>625</ele>
        <time>2019-04-04T01:28:17Z</time>
      </trkpt>
      <trkpt lat="42.92394" lon="-0.04082">
        <ele>624</ele>
        <time>2019-04-04T01:29:17Z</time>
      </trkpt>
      <trkpt lat="42.92363" lon="-0.04088">
        <ele>616</ele>
        <time>2019-04-04T01:30:17Z</time>
      </trkpt>
      <trkpt lat="42.92349" lon="-0.04088">
        <ele>614</ele>
        <time>2019-04-04T01:31:17Z</time>
      </trkpt>
      <trkpt lat="42.92329" lon="-0.04084">
        <ele>611</ele>
        <time>2019-04-04T01:32:17Z</time>
      </trkpt>
      <trkpt lat="42.92291" lon="-0.04072">
        <ele>622</ele>
        <time>2019-04-04T01:33:17Z</time>
      </trkpt>
      <trkpt lat="42.92274" lon="-0.04073">
        <ele>623</ele>
        <time>2019-04-04T01:34:17Z</time>
      </trkpt>
      <trkpt lat="42.9225" lon="-0.0408">
        <ele>621</ele>
        <time>2019-04-04T01:35:17Z</time>
      </trkpt>
      <trkpt lat="42.92235" lon="-0.04082">
        <ele>622</ele>
        <time>2019-04-04T01:36:17Z</time>
      </trkpt>
      <trkpt lat="42.92219" lon="-0.04079">
        <ele>628</ele>
        <time>2019-04-04T01:37:17Z</time>
      </trkpt>
      <trkpt lat="42.92208" lon="-0.04081">
        <ele>628</ele>
        <time>2019-04-04T01:38:17Z</time>
      </trkpt>
      <trkpt lat="42.92164" lon="-0.041">
        <ele>628</ele>
        <time>2019-04-04T01:39:17Z</time>
      </trkpt>
      <trkpt lat="42.9215" lon="-0.04104">
        <ele>624</ele>
        <time>2019-04-04T01:40:17Z</time>
      </trkpt>
      <trkpt lat="42.92084" lon="-0.04095">
        <ele>614</ele>
        <time>2019-04-04T01:41:17Z</time>
      </trkpt>
      <trkpt lat="42.92057" lon="-0.04081">
        <ele>611</ele>
        <time>2019-04-04T01:42:17Z</time>
      </trkpt>
      <trkpt lat="42.9204" lon="-0.04065">
        <ele>614</ele>
        <time>2019-04-04T01:43:17Z</time>
      </trkpt>
      <trkpt lat="42.92018" lon="-0.04033">
        <ele>622</ele>
        <time>2019-04-04T01:44:17Z</time>
      </trkpt>
      <trkpt lat="42.92013" lon="-0.04028">
        <ele>622</ele>
        <time>2019-04-04T01:45:17Z</time>
      </trkpt>
      <trkpt lat="42.92005" lon="-0.04026">
        <ele>620</ele>
        <time>2019-04-04T01:46:17Z</time>
      </trkpt>
      <trkpt lat="42.91963" lon="-0.04029">
        <ele>615</ele>
        <time>2019-04-04T01:47:17Z</time>
      </trkpt>
      <trkpt lat="42.91943" lon="-0.04022">
        <ele>618</ele>
        <time>2019-04-04T01:48:17Z</time>
      </trkpt>
      <trkpt lat="42.91926" lon="-0.04021">
        <ele>618</ele>
        <time>2019-04-04T01:49:17Z</time>
      </trkpt>
      <trkpt lat="42.91909" lon="-0.04025">
        <ele>615</ele>
        <time>2019-04-04T01:50:17Z</time>
      </trkpt>
      <trkpt lat="42.91885" lon="-0.04037">
        <ele>609</ele>
        <time>2019-04-04T01:51:17Z</time>
      </trkpt>
      <trkpt lat="42.91872" lon="-0.04042">
        <ele>606</ele>
        <time>2019-04-04T01:52:17Z</time>
      </trkpt>
      <trkpt lat="42.91863" lon="-0.04042">
        <ele>605</ele>
        <time>2019-04-04T01:53:17Z</time>
      </trkpt>
      <trkpt lat="42.91854" lon="-0.04036">
        <ele>607</ele>
        <time>2019-04-04T01:54:17Z</time>
      </trkpt>
      <trkpt lat="42.91825" lon="-0.04004">
        <ele>616</ele>
        <time>2019-04-04T01:55:17Z</time>
      </trkpt>
      <trkpt lat="42.91808" lon="-0.03991">
        <ele>617</ele>
        <time>2019-04-04T01:56:17Z</time>
      </trkpt>
      <trkpt lat="42.91753" lon="-0.03986">
        <ele>607</ele>
        <time>2019-04-04T01:57:17Z</time>
      </trkpt>
      <trkpt lat="42.91745" lon="-0.03983">
        <ele>606</ele>
        <time>2019-04-04T01:58:17Z</time>
      </trkpt>
      <trkpt lat="42.91737" lon="-0.03974">
        <ele>607</ele>
        <time>2019-04-04T01:59:17Z</time>
      </trkpt>
      <trkpt lat="42.91694" lon="-0.03912">
        <ele>613</ele>
        <time>2019-04-04T02:00:17Z</time>
      </trkpt>
      <trkpt lat="42.91658" lon="-0.03847">
        <ele>626</ele>
        <time>2019-04-04T02:01:17Z</time>
      </trkpt>
      <trkpt lat="42.91639" lon="-0.03826">
        <ele>629</ele>
        <time>2019-04-04T02:02:17Z</time>
      </trkpt>
      <trkpt lat="42.91612" lon="-0.03808">
        <ele>629</ele>
        <time>2019-04-04T02:03:17Z</time>
      </trkpt>
      <trkpt lat="42.91506" lon="-0.03754">
        <ele>623</ele>
        <time>2019-04-04T02:04:17Z</time>
      </trkpt>
      <trkpt lat="42.91427" lon="-0.03709">
        <ele>639</ele>
        <time>2019-04-04T02:05:17Z</time>
      </trkpt>
      <trkpt lat="42.91403" lon="-0.03698">
        <ele>646</ele>
        <time>2019-04-04T02:06:17Z</time>
      </trkpt>
      <trkpt lat="42.91389" lon="-0.03695">
        <ele>647</ele>
        <time>2019-04-04T02:07:17Z</time>
      </trkpt>
      <trkpt lat="42.91377" lon="-0.03697">
        <ele>645</ele>
        <time>2019-04-04T02:08:17Z</time>
      </trkpt>
      <trkpt lat="42.91335" lon="-0.03718">
        <ele>628</ele>
        <time>2019-04-04T02:09:17Z</time>
      </trkpt>
      <trkpt lat="42.913" lon="-0.03719">
        <ele>634</ele>
        <time>2019-04-04T02:10:17Z</time>
      </trkpt>
      <trkpt lat="42.91265" lon="-0.03735">
        <ele>631</ele>
        <time>2019-04-04T02:11:17Z</time>
      </trkpt>
      <trkpt lat="42.91246" lon="-0.03741">
        <ele>630</ele>
        <time>2019-04-04T02:12:17Z</time>
      </trkpt>
      <trkpt lat="42.91225" lon="-0.0374">
        <ele>631</ele>
        <time>2019-04-04T02:13:17Z</time>
      </trkpt>
      <trkpt lat="42.91187" lon="-0.03723">
        <ele>640</ele>
        <time>2019-04-04T02:14:17Z</time>
      </trkpt>
      <trkpt lat="42.91153" lon="-0.03712">
        <ele>644</ele>
        <time>2019-04-04T02:15:17Z</time>
      </trkpt>
      <trkpt lat="42.91096" lon="-0.03681">
        <ele>644</ele>
        <time>2019-04-04T02:16:17Z</time>
      </trkpt>
      <trkpt lat="42.91082" lon="-0.03677">
        <ele>642</ele>
        <time>2019-04-04T02:17:17Z</time>
      </trkpt>
      <trkpt lat="42.91002" lon="-0.03664">
        <ele>635</ele>
        <time>2019-04-04T02:18:17Z</time>
      </trkpt>
      <trkpt lat="42.90957" lon="-0.03665">
        <ele>631</ele>
        <time>2019-04-04T02:19:17Z</time>
      </trkpt>
      <trkpt lat="42.90913" lon="-0.03649">
        <ele>633</ele>
        <time>2019-04-04T02:20:17Z</time>
      </trkpt>
      <trkpt lat="42.90893" lon="-0.0364">
        <ele>632</ele>
        <time>2019-04-04T02:21:17Z</time>
      </trkpt>
      <trkpt lat="42.90854" lon="-0.0361">
        <ele>629</ele>
        <time>2019-04-04T02:22:17Z</time>
      </trkpt>
      <trkpt lat="42.90841" lon="-0.03593">
        <ele>626</ele>
        <time>2019-04-04T02:23:17Z</time>
      </trkpt>
      <trkpt lat="42.90746" lon="-0.03518">
        <ele>622</ele>
        <time>2019-04-04T02:24:17Z</time>
      </trkpt>
      <trkpt lat="42.90731" lon="-0.03508">
        <ele>622</ele>
        <time>2019-04-04T02:25:17Z</time>
      </trkpt>
      <trkpt lat="42.90686" lon="-0.03487">
        <ele>618</ele>
        <time>2019-04-04T02:26:17Z</time>
      </trkpt>
      <trkpt lat="42.90666" lon="-0.03474">
        <ele>616</ele>
        <time>2019-04-04T02:27:17Z</time>
      </trkpt>
      <trkpt lat="42.90649" lon="-0.03459">
        <ele>618</ele>
        <time>2019-04-04T02:28:17Z</time>
      </trkpt>
      <trkpt lat="42.90635" lon="-0.03454">
        <ele>617</ele>
        <time>2019-04-04T02:29:17Z</time>
      </trkpt>
      <trkpt lat="42.90604" lon="-0.03467">
        <ele>611</ele>
        <time>2019-04-04T02:30:17Z</time>
      </trkpt>
      <trkpt lat="42.90597" lon="-0.03466">
        <ele>610</ele>
        <time>2019-04-04T02:31:17Z</time>
      </trkpt>
      <trkpt lat="42.90591" lon="-0.0346">
        <ele>610</ele>
        <time>2019-04-04T02:32:17Z</time>
      </trkpt>
      <trkpt lat="42.90586" lon="-0.03453">
        <ele>610</ele>
        <time>2019-04-04T02:33:17Z</time>
      </trkpt>
      <trkpt lat="42.90569" lon="-0.03406">
        <ele>616</ele>
        <time>2019-04-04T02:34:17Z</time>
      </trkpt>
      <trkpt lat="42.90551" lon="-0.03369">
        <ele>623</ele>
        <time>2019-04-04T02:35:17Z</time>
      </trkpt>
      <trkpt lat="42.9049" lon="-0.03273">
        <ele>626</ele>
        <time>2019-04-04T02:36:17Z</time>
      </trkpt>
      <trkpt lat="42.90437" lon="-0.03173">
        <ele>629</ele>
        <time>2019-04-04T02:37:17Z</time>
      </trkpt>
      <trkpt lat="42.90411" lon="-0.03146">
        <ele>626</ele>
        <time>2019-04-04T02:38:17Z</time>
      </trkpt>
      <trkpt lat="42.90401" lon="-0.03139">
        <ele>626</ele>
        <time>2019-04-04T02:39:17Z</time>
      </trkpt>
      <trkpt lat="42.90391" lon="-0.03135">
        <ele>626</ele>
        <time>2019-04-04T02:40:17Z</time>
      </trkpt>
      <trkpt lat="42.90381" lon="-0.03135">
        <ele>626</ele>
        <time>2019-04-04T02:41:17Z</time>
      </trkpt>
      <trkpt lat="42.90369" lon="-0.03139">
        <ele>626</ele>
        <time>2019-04-04T02:42:17Z</time>
      </trkpt>
      <trkpt lat="42.90352" lon="-0.03148">
        <ele>628</ele>
        <time>2019-04-04T02:43:17Z</time>
      </trkpt>
      <trkpt lat="42.90332" lon="-0.0315">
        <ele>629</ele>
        <time>2019-04-04T02:44:17Z</time>
      </trkpt>
      <trkpt lat="42.90315" lon="-0.03144">
        <ele>629</ele>
        <time>2019-04-04T02:45:17Z</time>
      </trkpt>
      <trkpt lat="42.90237" lon="-0.03099">
        <ele>625</ele>
        <time>2019-04-04T02:46:17Z</time>
      </trkpt>
      <trkpt lat="42.90141" lon="-0.03029">
        <ele>625</ele>
        <time>2019-04-04T02:47:17Z</time>
      </trkpt>
      <trkpt lat="42.90038" lon="-0.02948">
        <ele>629</ele>
        <time>2019-04-04T02:48:17Z</time>
      </trkpt>
      <trkpt lat="42.89953" lon="-0.02891">
        <ele>632</ele>
        <time>2019-04-04T02:49:17Z</time>
      </trkpt>
      <trkpt lat="42.89892" lon="-0.02839">
        <ele>626</ele>
        <time>2019-04-04T02:50:17Z</time>
      </trkpt>
      <trkpt lat="42.8977" lon="-0.02769">
        <ele>628</ele>
        <time>2019-04-04T02:51:17Z</time>
      </trkpt>
      <trkpt lat="42.8914" lon="-0.02379">
        <ele>647</ele>
        <time>2019-04-04T02:52:17Z</time>
      </trkpt>
      <trkpt lat="42.89124" lon="-0.02365">
        <ele>650</ele>
        <time>2019-04-04T02:53:17Z</time>
      </trkpt>
      <trkpt lat="42.8911" lon="-0.0235">
        <ele>652</ele>
        <time>2019-04-04T02:54:17Z</time>
      </trkpt>
      <trkpt lat="42.89086" lon="-0.02315">
        <ele>652</ele>
        <time>2019-04-04T02:55:17Z</time>
      </trkpt>
      <trkpt lat="42.89" lon="-0.02146">
        <ele>658</ele>
        <time>2019-04-04T02:56:17Z</time>
      </trkpt>
      <trkpt lat="42.88976" lon="-0.02114">
        <ele>662</ele>
        <time>2019-04-04T02:57:17Z</time>
      </trkpt>
      <trkpt lat="42.88918" lon="-0.02056">
        <ele>666</ele>
        <time>2019-04-04T02:58:17Z</time>
      </trkpt>
      <trkpt lat="42.88892" lon="-0.02019">
        <ele>668</ele>
        <time>2019-04-04T02:59:17Z</time>
      </trkpt>
      <trkpt lat="42.88865" lon="-0.01969">
        <ele>670</ele>
        <time>2019-04-04T03:00:17Z</time>
      </trkpt>
      <trkpt lat="42.88839" lon="-0.01917">
        <ele>665</ele>
        <time>2019-04-04T03:01:17Z</time>
      </trkpt>
      <trkpt lat="42.88827" lon="-0.019">
        <ele>665</ele>
        <time>2019-04-04T03:02:17Z</time>
      </trkpt>
      <trkpt lat="42.88791" lon="-0.01864">
        <ele>667</ele>
        <time>2019-04-04T03:03:17Z</time>
      </trkpt>
      <trkpt lat="42.88741" lon="-0.01822">
        <ele>666</ele>
        <time>2019-04-04T03:04:17Z</time>
      </trkpt>
      <trkpt lat="42.88563" lon="-0.01664">
        <ele>655</ele>
        <time>2019-04-04T03:05:17Z</time>
      </trkpt>
      <trkpt lat="42.88548" lon="-0.01646">
        <ele>655</ele>
        <time>2019-04-04T03:06:17Z</time>
      </trkpt>
      <trkpt lat="42.88543" lon="-0.01639">
        <ele>655</ele>
        <time>2019-04-04T03:07:17Z</time>
      </trkpt>
      <trkpt lat="42.88539" lon="-0.01628">
        <ele>655</ele>
        <time>2019-04-04T03:08:17Z</time>
      </trkpt>
      <trkpt lat="42.88535" lon="-0.01583">
        <ele>652</ele>
        <time>2019-04-04T03:09:17Z</time>
      </trkpt>
      <trkpt lat="42.88529" lon="-0.01556">
        <ele>655</ele>
        <time>2019-04-04T03:10:17Z</time>
      </trkpt>
      <trkpt lat="42.88524" lon="-0.01546">
        <ele>656</ele>
        <time>2019-04-04T03:11:17Z</time>
      </trkpt>
      <trkpt lat="42.88514" lon="-0.01537">
        <ele>655</ele>
        <time>2019-04-04T03:12:17Z</time>
      </trkpt>
      <trkpt lat="42.88177" lon="-0.01285">
        <ele>667</ele>
        <time>2019-04-04T03:13:17Z</time>
      </trkpt>
      <trkpt lat="42.88028" lon="-0.01169">
        <ele>677</ele>
        <time>2019-04-04T03:14:17Z</time>
      </trkpt>
      <trkpt lat="42.87967" lon="-0.01087">
        <ele>680</ele>
        <time>2019-04-04T03:15:17Z</time>
      </trkpt>
      <trkpt lat="42.87792" lon="-0.00831">
        <ele>690</ele>
        <time>2019-04-04T03:16:17Z</time>
      </trkpt>
      <trkpt lat="42.8758" lon="-0.00524">
        <ele>700</ele>
        <time>2019-04-04T03:17:17Z</time>
      </trkpt>
      <trkpt lat="42.87443" lon="-0.00322">
        <ele>714</ele>
        <time>2019-04-04T03:18:17Z</time>
      </trkpt>
      <trkpt lat="42.87435" lon="-0.00315">
        <ele>714</ele>
        <time>2019-04-04T03:19:17Z</time>
      </trkpt>
      <trkpt lat="42.8737" lon="-0.00323">
        <ele>715</ele>
        <time>2019-04-04T03:20:17Z</time>
      </trkpt>
      <trkpt lat="42.87364" lon="-0.00326">
        <ele>715</ele>
        <time>2019-04-04T03:21:17Z</time>
      </trkpt>
      <trkpt lat="42.8733" lon="-0.00329">
        <ele>715</ele>
        <time>2019-04-04T03:22:17Z</time>
      </trkpt>
      <trkpt lat="42.87319" lon="-0.00326">
        <ele>716</ele>
        <time>2019-04-04T03:23:17Z</time>
      </trkpt>
      <trkpt lat="42.87309" lon="-0.00315">
        <ele>717</ele>
        <time>2019-04-04T03:24:17Z</time>
      </trkpt>
      <trkpt lat="42.87297" lon="-0.00297">
        <ele>718</ele>
        <time>2019-04-04T03:25:17Z</time>
      </trkpt>
      <trkpt lat="42.87229" lon="-0.00176">
        <ele>728</ele>
        <time>2019-04-04T03:26:17Z</time>
      </trkpt>
      <trkpt lat="42.87238" lon="-0.00139">
        <ele>728</ele>
        <time>2019-04-04T03:27:17Z</time>
      </trkpt>
      <trkpt lat="42.87262" lon="-0.00053">
        <ele>730</ele>
        <time>2019-04-04T03:28:17Z</time>
      </trkpt>
      <trkpt lat="42.87412" lon="0.00496">
        <ele>746</ele>
        <time>2019-04-04T03:29:17Z</time>
      </trkpt>
      <trkpt lat="42.87425" lon="0.00526">
        <ele>748</ele>
        <time>2019-04-04T03:30:17Z</time>
      </trkpt>
      <trkpt lat="42.87605" lon="0.00793">
        <ele>773</ele>
        <time>2019-04-04T03:31:17Z</time>
      </trkpt>
      <trkpt lat="42.87663" lon="0.00877">
        <ele>779</ele>
        <time>2019-04-04T03:32:17Z</time>
      </trkpt>
      <trkpt lat="42.87674" lon="0.00896">
        <ele>782</ele>
        <time>2019-04-04T03:33:17Z</time>
      </trkpt>
      <trkpt lat="42.87683" lon="0.00916">
        <ele>784</ele>
        <time>2019-04-04T03:34:17Z</time>
      </trkpt>
      <trkpt lat="42.87728" lon="0.0106">
        <ele>791</ele>
        <time>2019-04-04T03:35:17Z</time>
      </trkpt>
      <trkpt lat="42.87763" lon="0.0115">
        <ele>798</ele>
        <time>2019-04-04T03:36:17Z</time>
      </trkpt>
      <trkpt lat="42.87796" lon="0.01243">
        <ele>806</ele>
        <time>2019-04-04T03:37:17Z</time>
      </trkpt>
      <trkpt lat="42.87807" lon="0.0128">
        <ele>806</ele>
        <time>2019-04-04T03:38:17Z</time>
      </trkpt>
      <trkpt lat="42.87815" lon="0.01321">
        <ele>807</ele>
        <time>2019-04-04T03:39:17Z</time>
      </trkpt>
      <trkpt lat="42.87819" lon="0.01514">
        <ele>818</ele>
        <time>2019-04-04T03:40:17Z</time>
      </trkpt>
      <trkpt lat="42.87821" lon="0.01568">
        <ele>819</ele>
        <time>2019-04-04T03:41:17Z</time>
      </trkpt>
      <trkpt lat="42.87835" lon="0.0177">
        <ele>826</ele>
        <time>2019-04-04T03:42:17Z</time>
      </trkpt>
      <trkpt lat="42.87851" lon="0.02149">
        <ele>856</ele>
        <time>2019-04-04T03:43:17Z</time>
      </trkpt>
      <trkpt lat="42.87858" lon="0.02264">
        <ele>867</ele>
        <time>2019-04-04T03:44:17Z</time>
      </trkpt>
      <trkpt lat="42.87862" lon="0.02287">
        <ele>869</ele>
        <time>2019-04-04T03:45:17Z</time>
      </trkpt>
      <trkpt lat="42.87878" lon="0.02338">
        <ele>869</ele>
        <time>2019-04-04T03:46:17Z</time>
      </trkpt>
      <trkpt lat="42.87883" lon="0.0236">
        <ele>870</ele>
        <time>2019-04-04T03:47:17Z</time>
      </trkpt>
      <trkpt lat="42.87895" lon="0.02429">
        <ele>872</ele>
        <time>2019-04-04T03:48:17Z</time>
      </trkpt>
      <trkpt lat="42.8792" lon="0.02544">
        <ele>877</ele>
        <time>2019-04-04T03:49:17Z</time>
      </trkpt>
      <trkpt lat="42.87934" lon="0.02597">
        <ele>882</ele>
        <time>2019-04-04T03:50:17Z</time>
      </trkpt>
      <trkpt lat="42.8795" lon="0.02632">
        <ele>885</ele>
        <time>2019-04-04T03:51:17Z</time>
      </trkpt>
      <trkpt lat="42.87983" lon="0.02674">
        <ele>882</ele>
        <time>2019-04-04T03:52:17Z</time>
      </trkpt>
      <trkpt lat="42.88301" lon="0.03037">
        <ele>926</ele>
        <time>2019-04-04T03:53:17Z</time>
      </trkpt>
      <trkpt lat="42.88312" lon="0.03052">
        <ele>926</ele>
        <time>2019-04-04T03:54:17Z</time>
      </trkpt>
      <trkpt lat="42.88328" lon="0.031">
        <ele>924</ele>
        <time>2019-04-04T03:55:17Z</time>
      </trkpt>
      <trkpt lat="42.88333" lon="0.03143">
        <ele>928</ele>
        <time>2019-04-04T03:56:17Z</time>
      </trkpt>
      <trkpt lat="42.88332" lon="0.03154">
        <ele>930</ele>
        <time>2019-04-04T03:57:17Z</time>
      </trkpt>
      <trkpt lat="42.88298" lon="0.03263">
        <ele>951</ele>
        <time>2019-04-04T03:58:17Z</time>
      </trkpt>
      <trkpt lat="42.88297" lon="0.03286">
        <ele>952</ele>
        <time>2019-04-04T03:59:17Z</time>
      </trkpt>
      <trkpt lat="42.88297" lon="0.03446">
        <ele>957</ele>
        <time>2019-04-04T04:00:17Z</time>
      </trkpt>
      <trkpt lat="42.88288" lon="0.03488">
        <ele>960</ele>
        <time>2019-04-04T04:01:17Z</time>
      </trkpt>
      <trkpt lat="42.88276" lon="0.03525">
        <ele>962</ele>
        <time>2019-04-04T04:02:17Z</time>
      </trkpt>
      <trkpt lat="42.88267" lon="0.0357">
        <ele>963</ele>
        <time>2019-04-04T04:03:17Z</time>
      </trkpt>
      <trkpt lat="42.88266" lon="0.03646">
        <ele>966</ele>
        <time>2019-04-04T04:04:17Z</time>
      </trkpt>
      <trkpt lat="42.88269" lon="0.03686">
        <ele>969</ele>
        <time>2019-04-04T04:05:17Z</time>
      </trkpt>
      <trkpt lat="42.88287" lon="0.03785">
        <ele>977</ele>
        <time>2019-04-04T04:06:17Z</time>
      </trkpt>
      <trkpt lat="42.88376" lon="0.04007">
        <ele>991</ele>
        <time>2019-04-04T04:07:17Z</time>
      </trkpt>
      <trkpt lat="42.88377" lon="0.04015">
        <ele>992</ele>
        <time>2019-04-04T04:08:17Z</time>
      </trkpt>
      <trkpt lat="42.88376" lon="0.04021">
        <ele>993</ele>
        <time>2019-04-04T04:09:17Z</time>
      </trkpt>
      <trkpt lat="42.8837" lon="0.0403">
        <ele>995</ele>
        <time>2019-04-04T04:10:17Z</time>
      </trkpt>
      <trkpt lat="42.88362" lon="0.04035">
        <ele>996</ele>
        <time>2019-04-04T04:11:17Z</time>
      </trkpt>
      <trkpt lat="42.88357" lon="0.04034">
        <ele>996</ele>
        <time>2019-04-04T04:12:17Z</time>
      </trkpt>
      <trkpt lat="42.88353" lon="0.04031">
        <ele>996</ele>
        <time>2019-04-04T04:13:17Z</time>
      </trkpt>
      <trkpt lat="42.88344" lon="0.04019">
        <ele>993</ele>
        <time>2019-04-04T04:14:17Z</time>
      </trkpt>
      <trkpt lat="42.88326" lon="0.03987">
        <ele>988</ele>
        <time>2019-04-04T04:15:17Z</time>
      </trkpt>
      <trkpt lat="42.88313" lon="0.03974">
        <ele>989</ele>
        <time>2019-04-04T04:16:17Z</time>
      </trkpt>
      <trkpt lat="42.88275" lon="0.03947">
        <ele>994</ele>
        <time>2019-04-04T04:17:17Z</time>
      </trkpt>
      <trkpt lat="42.88265" lon="0.03944">
        <ele>996</ele>
        <time>2019-04-04T04:18:17Z</time>
      </trkpt>
      <trkpt lat="42.88257" lon="0.03949">
        <ele>998</ele>
        <time>2019-04-04T04:19:17Z</time>
      </trkpt>
      <trkpt lat="42.88252" lon="0.03958">
        <ele>1000</ele>
        <time>2019-04-04T04:20:17Z</time>
      </trkpt>
      <trkpt lat="42.88252" lon="0.03966">
        <ele>1000</ele>
        <time>2019-04-04T04:21:17Z</time>
      </trkpt>
      <trkpt lat="42.88254" lon="0.03976">
        <ele>1000</ele>
        <time>2019-04-04T04:22:17Z</time>
      </trkpt>
      <trkpt lat="42.88261" lon="0.03982">
        <ele>999</ele>
        <time>2019-04-04T04:23:17Z</time>
      </trkpt>
      <trkpt lat="42.88293" lon="0.0399">
        <ele>994</ele>
        <time>2019-04-04T04:24:17Z</time>
      </trkpt>
      <trkpt lat="42.8831" lon="0.04003">
        <ele>993</ele>
        <time>2019-04-04T04:25:17Z</time>
      </trkpt>
      <trkpt lat="42.88386" lon="0.04114">
        <ele>1008</ele>
        <time>2019-04-04T04:26:17Z</time>
      </trkpt>
      <trkpt lat="42.88459" lon="0.04215">
        <ele>1022</ele>
        <time>2019-04-04T04:27:17Z</time>
      </trkpt>
      <trkpt lat="42.88517" lon="0.04286">
        <ele>1032</ele>
        <time>2019-04-04T04:28:17Z</time>
      </trkpt>
      <trkpt lat="42.88528" lon="0.04303">
        <ele>1034</ele>
        <time>2019-04-04T04:29:17Z</time>
      </trkpt>
      <trkpt lat="42.88553" lon="0.04348">
        <ele>1036</ele>
        <time>2019-04-04T04:30:17Z</time>
      </trkpt>
      <trkpt lat="42.88611" lon="0.04434">
        <ele>1043</ele>
        <time>2019-04-04T04:31:17Z</time>
      </trkpt>
      <trkpt lat="42.88636" lon="0.04459">
        <ele>1045</ele>
        <time>2019-04-04T04:32:17Z</time>
      </trkpt>
      <trkpt lat="42.88669" lon="0.04489">
        <ele>1045</ele>
        <time>2019-04-04T04:33:17Z</time>
      </trkpt>
      <trkpt lat="42.88723" lon="0.04531">
        <ele>1049</ele>
        <time>2019-04-04T04:34:17Z</time>
      </trkpt>
      <trkpt lat="42.88752" lon="0.04559">
        <ele>1047</ele>
        <time>2019-04-04T04:35:17Z</time>
      </trkpt>
      <trkpt lat="42.88797" lon="0.04607">
        <ele>1057</ele>
        <time>2019-04-04T04:36:17Z</time>
      </trkpt>
      <trkpt lat="42.88817" lon="0.04619">
        <ele>1058</ele>
        <time>2019-04-04T04:37:17Z</time>
      </trkpt>
      <trkpt lat="42.88838" lon="0.04628">
        <ele>1058</ele>
        <time>2019-04-04T04:38:17Z</time>
      </trkpt>
      <trkpt lat="42.88878" lon="0.04643">
        <ele>1064</ele>
        <time>2019-04-04T04:39:17Z</time>
      </trkpt>
      <trkpt lat="42.88949" lon="0.04683">
        <ele>1070</ele>
        <time>2019-04-04T04:40:17Z</time>
      </trkpt>
      <trkpt lat="42.89008" lon="0.04705">
        <ele>1076</ele>
        <time>2019-04-04T04:41:17Z</time>
      </trkpt>
      <trkpt lat="42.8902" lon="0.04711">
        <ele>1078</ele>
        <time>2019-04-04T04:42:17Z</time>
      </trkpt>
      <trkpt lat="42.89043" lon="0.04739">
        <ele>1080</ele>
        <time>2019-04-04T04:43:17Z</time>
      </trkpt>
      <trkpt lat="42.8911" lon="0.04845">
        <ele>1094</ele>
        <time>2019-04-04T04:44:17Z</time>
      </trkpt>
      <trkpt lat="42.89112" lon="0.04855">
        <ele>1095</ele>
        <time>2019-04-04T04:45:17Z</time>
      </trkpt>
      <trkpt lat="42.89111" lon="0.04865">
        <ele>1095</ele>
        <time>2019-04-04T04:46:17Z</time>
      </trkpt>
      <trkpt lat="42.89106" lon="0.04874">
        <ele>1095</ele>
        <time>2019-04-04T04:47:17Z</time>
      </trkpt>
      <trkpt lat="42.89095" lon="0.04879">
        <ele>1095</ele>
        <time>2019-04-04T04:48:17Z</time>
      </trkpt>
      <trkpt lat="42.89085" lon="0.04873">
        <ele>1094</ele>
        <time>2019-04-04T04:49:17Z</time>
      </trkpt>
      <trkpt lat="42.89067" lon="0.04855">
        <ele>1093</ele>
        <time>2019-04-04T04:50:17Z</time>
      </trkpt>
      <trkpt lat="42.89039" lon="0.04806">
        <ele>1089</ele>
        <time>2019-04-04T04:51:17Z</time>
      </trkpt>
      <trkpt lat="42.8903" lon="0.04801">
        <ele>1088</ele>
        <time>2019-04-04T04:52:17Z</time>
      </trkpt>
      <trkpt lat="42.89021" lon="0.04803">
        <ele>1089</ele>
        <time>2019-04-04T04:53:17Z</time>
      </trkpt>
      <trkpt lat="42.89014" lon="0.04812">
        <ele>1091</ele>
        <time>2019-04-04T04:54:17Z</time>
      </trkpt>
      <trkpt lat="42.89011" lon="0.04824">
        <ele>1093</ele>
        <time>2019-04-04T04:55:17Z</time>
      </trkpt>
      <trkpt lat="42.89014" lon="0.04836">
        <ele>1095</ele>
        <time>2019-04-04T04:56:17Z</time>
      </trkpt>
      <trkpt lat="42.89018" lon="0.04845">
        <ele>1096</ele>
        <time>2019-04-04T04:57:17Z</time>
      </trkpt>
      <trkpt lat="42.8904" lon="0.04868">
        <ele>1097</ele>
        <time>2019-04-04T04:58:17Z</time>
      </trkpt>
      <trkpt lat="42.89048" lon="0.04883">
        <ele>1099</ele>
        <time>2019-04-04T04:59:17Z</time>
      </trkpt>
      <trkpt lat="42.89054" lon="0.04901">
        <ele>1100</ele>
        <time>2019-04-04T05:00:17Z</time>
      </trkpt>
      <trkpt lat="42.89057" lon="0.04955">
        <ele>1110</ele>
        <time>2019-04-04T05:01:17Z</time>
      </trkpt>
      <trkpt lat="42.89061" lon="0.04973">
        <ele>1114</ele>
        <time>2019-04-04T05:02:17Z</time>
      </trkpt>
      <trkpt lat="42.89072" lon="0.04992">
        <ele>1115</ele>
        <time>2019-04-04T05:03:17Z</time>
      </trkpt>
      <trkpt lat="42.89112" lon="0.05049">
        <ele>1124</ele>
        <time>2019-04-04T05:04:17Z</time>
      </trkpt>
      <trkpt lat="42.89127" lon="0.05065">
        <ele>1123</ele>
        <time>2019-04-04T05:05:17Z</time>
      </trkpt>
      <trkpt lat="42.89186" lon="0.05095">
        <ele>1115</ele>
        <time>2019-04-04T05:06:17Z</time>
      </trkpt>
      <trkpt lat="42.89199" lon="0.05105">
        <ele>1117</ele>
        <time>2019-04-04T05:07:17Z</time>
      </trkpt>
      <trkpt lat="42.89206" lon="0.05114">
        <ele>1117</ele>
        <time>2019-04-04T05:08:17Z</time>
      </trkpt>
      <trkpt lat="42.89281" lon="0.05265">
        <ele>1132</ele>
        <time>2019-04-04T05:09:17Z</time>
      </trkpt>
      <trkpt lat="42.89289" lon="0.05294">
        <ele>1137</ele>
        <time>2019-04-04T05:10:17Z</time>
      </trkpt>
      <trkpt lat="42.89296" lon="0.05353">
        <ele>1146</ele>
        <time>2019-04-04T05:11:17Z</time>
      </trkpt>
      <trkpt lat="42.89302" lon="0.05379">
        <ele>1149</ele>
        <time>2019-04-04T05:12:17Z</time>
      </trkpt>
      <trkpt lat="42.89311" lon="0.05407">
        <ele>1152</ele>
        <time>2019-04-04T05:13:17Z</time>
      </trkpt>
      <trkpt lat="42.89412" lon="0.05636">
        <ele>1165</ele>
        <time>2019-04-04T05:14:17Z</time>
      </trkpt>
      <trkpt lat="42.89438" lon="0.05723">
        <ele>1176</ele>
        <time>2019-04-04T05:15:17Z</time>
      </trkpt>
      <trkpt lat="42.89447" lon="0.05746">
        <ele>1178</ele>
        <time>2019-04-04T05:16:17Z</time>
      </trkpt>
      <trkpt lat="42.89466" lon="0.05778">
        <ele>1181</ele>
        <time>2019-04-04T05:17:17Z</time>
      </trkpt>
      <trkpt lat="42.89488" lon="0.05813">
        <ele>1181</ele>
        <time>2019-04-04T05:18:17Z</time>
      </trkpt>
      <trkpt lat="42.89505" lon="0.05833">
        <ele>1180</ele>
        <time>2019-04-04T05:19:17Z</time>
      </trkpt>
      <trkpt lat="42.8956" lon="0.05866">
        <ele>1184</ele>
        <time>2019-04-04T05:20:17Z</time>
      </trkpt>
      <trkpt lat="42.89563" lon="0.05872">
        <ele>1185</ele>
        <time>2019-04-04T05:21:17Z</time>
      </trkpt>
      <trkpt lat="42.89564" lon="0.05888">
        <ele>1186</ele>
        <time>2019-04-04T05:22:17Z</time>
      </trkpt>
      <trkpt lat="42.89562" lon="0.05897">
        <ele>1186</ele>
        <time>2019-04-04T05:23:17Z</time>
      </trkpt>
      <trkpt lat="42.89559" lon="0.05902">
        <ele>1187</ele>
        <time>2019-04-04T05:24:17Z</time>
      </trkpt>
      <trkpt lat="42.8955" lon="0.0591">
        <ele>1188</ele>
        <time>2019-04-04T05:25:17Z</time>
      </trkpt>
      <trkpt lat="42.89545" lon="0.05911">
        <ele>1188</ele>
        <time>2019-04-04T05:26:17Z</time>
      </trkpt>
      <trkpt lat="42.89536" lon="0.05908">
        <ele>1188</ele>
        <time>2019-04-04T05:27:17Z</time>
      </trkpt>
      <trkpt lat="42.89519" lon="0.05895">
        <ele>1188</ele>
        <time>2019-04-04T05:28:17Z</time>
      </trkpt>
      <trkpt lat="42.89514" lon="0.05894">
        <ele>1188</ele>
        <time>2019-04-04T05:29:17Z</time>
      </trkpt>
      <trkpt lat="42.89505" lon="0.05896">
        <ele>1188</ele>
        <time>2019-04-04T05:30:17Z</time>
      </trkpt>
      <trkpt lat="42.89499" lon="0.05903">
        <ele>1190</ele>
        <time>2019-04-04T05:31:17Z</time>
      </trkpt>
      <trkpt lat="42.89493" lon="0.05917">
        <ele>1194</ele>
        <time>2019-04-04T05:32:17Z</time>
      </trkpt>
      <trkpt lat="42.89494" lon="0.05931">
        <ele>1197</ele>
        <time>2019-04-04T05:33:17Z</time>
      </trkpt>
      <trkpt lat="42.89499" lon="0.05943">
        <ele>1198</ele>
        <time>2019-04-04T05:34:17Z</time>
      </trkpt>
      <trkpt lat="42.89506" lon="0.0595">
        <ele>1199</ele>
        <time>2019-04-04T05:35:17Z</time>
      </trkpt>
      <trkpt lat="42.89519" lon="0.05952">
        <ele>1198</ele>
        <time>2019-04-04T05:36:17Z</time>
      </trkpt>
      <trkpt lat="42.89547" lon="0.05945">
        <ele>1194</ele>
        <time>2019-04-04T05:37:17Z</time>
      </trkpt>
      <trkpt lat="42.8956" lon="0.05944">
        <ele>1193</ele>
        <time>2019-04-04T05:38:17Z</time>
      </trkpt>
      <trkpt lat="42.89572" lon="0.05946">
        <ele>1192</ele>
        <time>2019-04-04T05:39:17Z</time>
      </trkpt>
      <trkpt lat="42.89587" lon="0.05959">
        <ele>1194</ele>
        <time>2019-04-04T05:40:17Z</time>
      </trkpt>
      <trkpt lat="42.89598" lon="0.05982">
        <ele>1198</ele>
        <time>2019-04-04T05:41:17Z</time>
      </trkpt>
      <trkpt lat="42.89601" lon="0.06">
        <ele>1200</ele>
        <time>2019-04-04T05:42:17Z</time>
      </trkpt>
      <trkpt lat="42.89604" lon="0.06036">
        <ele>1204</ele>
        <time>2019-04-04T05:43:17Z</time>
      </trkpt>
      <trkpt lat="42.89612" lon="0.06105">
        <ele>1211</ele>
        <time>2019-04-04T05:44:17Z</time>
      </trkpt>
      <trkpt lat="42.89616" lon="0.06209">
        <ele>1218</ele>
        <time>2019-04-04T05:45:17Z</time>
      </trkpt>
      <trkpt lat="42.89623" lon="0.06336">
        <ele>1227</ele>
        <time>2019-04-04T05:46:17Z</time>
      </trkpt>
      <trkpt lat="42.89656" lon="0.06428">
        <ele>1231</ele>
        <time>2019-04-04T05:47:17Z</time>
      </trkpt>
      <trkpt lat="42.89655" lon="0.06435">
        <ele>1232</ele>
        <time>2019-04-04T05:48:17Z</time>
      </trkpt>
      <trkpt lat="42.89662" lon="0.06452">
        <ele>1232</ele>
        <time>2019-04-04T05:49:17Z</time>
      </trkpt>
      <trkpt lat="42.89668" lon="0.06459">
        <ele>1231</ele>
        <time>2019-04-04T05:50:17Z</time>
      </trkpt>
      <trkpt lat="42.89711" lon="0.06572">
        <ele>1244</ele>
        <time>2019-04-04T05:51:17Z</time>
      </trkpt>
      <trkpt lat="42.89767" lon="0.06735">
        <ele>1254</ele>
        <time>2019-04-04T05:52:17Z</time>
      </trkpt>
      <trkpt lat="42.89773" lon="0.06762">
        <ele>1258</ele>
        <time>2019-04-04T05:53:17Z</time>
      </trkpt>
      <trkpt lat="42.89783" lon="0.06825">
        <ele>1268</ele>
        <time>2019-04-04T05:54:17Z</time>
      </trkpt>
      <trkpt lat="42.8984" lon="0.07144">
        <ele>1289</ele>
        <time>2019-04-04T05:55:17Z</time>
      </trkpt>
      <trkpt lat="42.89843" lon="0.07232">
        <ele>1299</ele>
        <time>2019-04-04T05:56:17Z</time>
      </trkpt>
      <trkpt lat="42.89854" lon="0.0729">
        <ele>1302</ele>
        <time>2019-04-04T05:57:17Z</time>
      </trkpt>
      <trkpt lat="42.89865" lon="0.07384">
        <ele>1307</ele>
        <time>2019-04-04T05:58:17Z</time>
      </trkpt>
      <trkpt lat="42.89869" lon="0.07486">
        <ele>1313</ele>
        <time>2019-04-04T05:59:17Z</time>
      </trkpt>
      <trkpt lat="42.89877" lon="0.07506">
        <ele>1312</ele>
        <time>2019-04-04T06:00:17Z</time>
      </trkpt>
      <trkpt lat="42.89942" lon="0.07626">
        <ele>1313</ele>
        <time>2019-04-04T06:01:17Z</time>
      </trkpt>
      <trkpt lat="42.89947" lon="0.0764">
        <ele>1314</ele>
        <time>2019-04-04T06:02:17Z</time>
      </trkpt>
      <trkpt lat="42.8996" lon="0.07726">
        <ele>1323</ele>
        <time>2019-04-04T06:03:17Z</time>
      </trkpt>
      <trkpt lat="42.89983" lon="0.07814">
        <ele>1329</ele>
        <time>2019-04-04T06:04:17Z</time>
      </trkpt>
      <trkpt lat="42.90031" lon="0.07965">
        <ele>1350</ele>
        <time>2019-04-04T06:05:17Z</time>
      </trkpt>
      <trkpt lat="42.90056" lon="0.08036">
        <ele>1354</ele>
        <time>2019-04-04T06:06:17Z</time>
      </trkpt>
      <trkpt lat="42.90104" lon="0.08208">
        <ele>1374</ele>
        <time>2019-04-04T06:07:17Z</time>
      </trkpt>
      <trkpt lat="42.90149" lon="0.08298">
        <ele>1371</ele>
        <time>2019-04-04T06:08:17Z</time>
      </trkpt>
      <trkpt lat="42.90155" lon="0.08316">
        <ele>1371</ele>
        <time>2019-04-04T06:09:17Z</time>
      </trkpt>
      <trkpt lat="42.90158" lon="0.08336">
        <ele>1372</ele>
        <time>2019-04-04T06:10:17Z</time>
      </trkpt>
      <trkpt lat="42.90159" lon="0.08361">
        <ele>1376</ele>
        <time>2019-04-04T06:11:17Z</time>
      </trkpt>
      <trkpt lat="42.90157" lon="0.08381">
        <ele>1380</ele>
        <time>2019-04-04T06:12:17Z</time>
      </trkpt>
      <trkpt lat="42.90158" lon="0.08401">
        <ele>1383</ele>
        <time>2019-04-04T06:13:17Z</time>
      </trkpt>
      <trkpt lat="42.90192" lon="0.08692">
        <ele>1411</ele>
        <time>2019-04-04T06:14:17Z</time>
      </trkpt>
      <trkpt lat="42.90271" lon="0.0899">
        <ele>1415</ele>
        <time>2019-04-04T06:15:17Z</time>
      </trkpt>
      <trkpt lat="42.90274" lon="0.09009">
        <ele>1416</ele>
        <time>2019-04-04T06:16:17Z</time>
      </trkpt>
      <trkpt lat="42.90275" lon="0.09024">
        <ele>1416</ele>
        <time>2019-04-04T06:17:17Z</time>
      </trkpt>
      <trkpt lat="42.90268" lon="0.09084">
        <ele>1418</ele>
        <time>2019-04-04T06:18:17Z</time>
      </trkpt>
      <trkpt lat="42.90267" lon="0.09105">
        <ele>1421</ele>
        <time>2019-04-04T06:19:17Z</time>
      </trkpt>
      <trkpt lat="42.90268" lon="0.0913">
        <ele>1423</ele>
        <time>2019-04-04T06:20:17Z</time>
      </trkpt>
      <trkpt lat="42.90271" lon="0.09154">
        <ele>1425</ele>
        <time>2019-04-04T06:21:17Z</time>
      </trkpt>
      <trkpt lat="42.90312" lon="0.09335">
        <ele>1432</ele>
        <time>2019-04-04T06:22:17Z</time>
      </trkpt>
      <trkpt lat="42.90324" lon="0.09401">
        <ele>1434</ele>
        <time>2019-04-04T06:23:17Z</time>
      </trkpt>
      <trkpt lat="42.90329" lon="0.09441">
        <ele>1434</ele>
        <time>2019-04-04T06:24:17Z</time>
      </trkpt>
      <trkpt lat="42.9033" lon="0.09504">
        <ele>1437</ele>
        <time>2019-04-04T06:25:17Z</time>
      </trkpt>
      <trkpt lat="42.90326" lon="0.09512">
        <ele>1441</ele>
        <time>2019-04-04T06:26:17Z</time>
      </trkpt>
      <trkpt lat="42.90323" lon="0.09519">
        <ele>1444</ele>
        <time>2019-04-04T06:27:17Z</time>
      </trkpt>
      <trkpt lat="42.90321" lon="0.0974">
        <ele>1454</ele>
        <time>2019-04-04T06:28:17Z</time>
      </trkpt>
      <trkpt lat="42.90334" lon="0.09956">
        <ele>1463</ele>
        <time>2019-04-04T06:29:17Z</time>
      </trkpt>
      <trkpt lat="42.90333" lon="0.09987">
        <ele>1465</ele>
        <time>2019-04-04T06:30:17Z</time>
      </trkpt>
      <trkpt lat="42.90331" lon="0.09995">
        <ele>1466</ele>
        <time>2019-04-04T06:31:17Z</time>
      </trkpt>
      <trkpt lat="42.90267" lon="0.10112">
        <ele>1476</ele>
        <time>2019-04-04T06:32:17Z</time>
      </trkpt>
      <trkpt lat="42.90242" lon="0.10144">
        <ele>1479</ele>
        <time>2019-04-04T06:33:17Z</time>
      </trkpt>
      <trkpt lat="42.90208" lon="0.102">
        <ele>1485</ele>
        <time>2019-04-04T06:34:17Z</time>
      </trkpt>
      <trkpt lat="42.90186" lon="0.10228">
        <ele>1488</ele>
        <time>2019-04-04T06:35:17Z</time>
      </trkpt>
      <trkpt lat="42.90164" lon="0.10252">
        <ele>1489</ele>
        <time>2019-04-04T06:36:17Z</time>
      </trkpt>
      <trkpt lat="42.90134" lon="0.10292">
        <ele>1490</ele>
        <time>2019-04-04T06:37:17Z</time>
      </trkpt>
      <trkpt lat="42.90124" lon="0.10298">
        <ele>1492</ele>
        <time>2019-04-04T06:38:17Z</time>
      </trkpt>
      <trkpt lat="42.90078" lon="0.10311">
        <ele>1499</ele>
        <time>2019-04-04T06:39:17Z</time>
      </trkpt>
      <trkpt lat="42.89933" lon="0.10368">
        <ele>1516</ele>
        <time>2019-04-04T06:40:17Z</time>
      </trkpt>
      <trkpt lat="42.89847" lon="0.10412">
        <ele>1518</ele>
        <time>2019-04-04T06:41:17Z</time>
      </trkpt>
      <trkpt lat="42.89798" lon="0.10444">
        <ele>1523</ele>
        <time>2019-04-04T06:42:17Z</time>
      </trkpt>
      <trkpt lat="42.89768" lon="0.10456">
        <ele>1527</ele>
        <time>2019-04-04T06:43:17Z</time>
      </trkpt>
      <trkpt lat="42.89752" lon="0.1046">
        <ele>1530</ele>
        <time>2019-04-04T06:44:17Z</time>
      </trkpt>
      <trkpt lat="42.89728" lon="0.10461">
        <ele>1533</ele>
        <time>2019-04-04T06:45:17Z</time>
      </trkpt>
      <trkpt lat="42.89669" lon="0.10483">
        <ele>1536</ele>
        <time>2019-04-04T06:46:17Z</time>
      </trkpt>
      <trkpt lat="42.89645" lon="0.10485">
        <ele>1537</ele>
        <time>2019-04-04T06:47:17Z</time>
      </trkpt>
      <trkpt lat="42.8963" lon="0.10484">
        <ele>1538</ele>
        <time>2019-04-04T06:48:17Z</time>
      </trkpt>
      <trkpt lat="42.89611" lon="0.10478">
        <ele>1540</ele>
        <time>2019-04-04T06:49:17Z</time>
      </trkpt>
      <trkpt lat="42.89576" lon="0.10463">
        <ele>1546</ele>
        <time>2019-04-04T06:50:17Z</time>
      </trkpt>
      <trkpt lat="42.89562" lon="0.10455">
        <ele>1549</ele>
        <time>2019-04-04T06:51:17Z</time>
      </trkpt>
      <trkpt lat="42.89556" lon="0.10455">
        <ele>1550</ele>
        <time>2019-04-04T06:52:17Z</time>
      </trkpt>
      <trkpt lat="42.89548" lon="0.10464">
        <ele>1550</ele>
        <time>2019-04-04T06:53:17Z</time>
      </trkpt>
      <trkpt lat="42.89529" lon="0.10527">
        <ele>1546</ele>
        <time>2019-04-04T06:54:17Z</time>
      </trkpt>
      <trkpt lat="42.8951" lon="0.10607">
        <ele>1550</ele>
        <time>2019-04-04T06:55:17Z</time>
      </trkpt>
      <trkpt lat="42.89508" lon="0.10636">
        <ele>1553</ele>
        <time>2019-04-04T06:56:17Z</time>
      </trkpt>
      <trkpt lat="42.89512" lon="0.10654">
        <ele>1554</ele>
        <time>2019-04-04T06:57:17Z</time>
      </trkpt>
      <trkpt lat="42.89525" lon="0.10672">
        <ele>1555</ele>
        <time>2019-04-04T06:58:17Z</time>
      </trkpt>
      <trkpt lat="42.89541" lon="0.10688">
        <ele>1557</ele>
        <time>2019-04-04T06:59:17Z</time>
      </trkpt>
      <trkpt lat="42.89555" lon="0.10698">
        <ele>1558</ele>
        <time>2019-04-04T07:00:17Z</time>
      </trkpt>
      <trkpt lat="42.89563" lon="0.10709">
        <ele>1559</ele>
        <time>2019-04-04T07:01:17Z</time>
      </trkpt>
      <trkpt lat="42.89572" lon="0.10726">
        <ele>1562</ele>
        <time>2019-04-04T07:02:17Z</time>
      </trkpt>
      <trkpt lat="42.89582" lon="0.10736">
        <ele>1563</ele>
        <time>2019-04-04T07:03:17Z</time>
      </trkpt>
      <trkpt lat="42.896" lon="0.10746">
        <ele>1564</ele>
        <time>2019-04-04T07:04:17Z</time>
      </trkpt>
      <trkpt lat="42.89624" lon="0.10747">
        <ele>1563</ele>
        <time>2019-04-04T07:05:17Z</time>
      </trkpt>
      <trkpt lat="42.89638" lon="0.1075">
        <ele>1563</ele>
        <time>2019-04-04T07:06:17Z</time>
      </trkpt>
      <trkpt lat="42.89667" lon="0.1077">
        <ele>1569</ele>
        <time>2019-04-04T07:07:17Z</time>
      </trkpt>
      <trkpt lat="42.89672" lon="0.10775">
        <ele>1571</ele>
        <time>2019-04-04T07:08:17Z</time>
      </trkpt>
      <trkpt lat="42.89696" lon="0.10789">
        <ele>1574</ele>
        <time>2019-04-04T07:09:17Z</time>
      </trkpt>
      <trkpt lat="42.89719" lon="0.10796">
        <ele>1575</ele>
        <time>2019-04-04T07:10:17Z</time>
      </trkpt>
      <trkpt lat="42.89762" lon="0.10818">
        <ele>1579</ele>
        <time>2019-04-04T07:11:17Z</time>
      </trkpt>
      <trkpt lat="42.89785" lon="0.10825">
        <ele>1581</ele>
        <time>2019-04-04T07:12:17Z</time>
      </trkpt>
      <trkpt lat="42.89808" lon="0.10826">
        <ele>1581</ele>
        <time>2019-04-04T07:13:17Z</time>
      </trkpt>
      <trkpt lat="42.89824" lon="0.1083">
        <ele>1582</ele>
        <time>2019-04-04T07:14:17Z</time>
      </trkpt>
      <trkpt lat="42.89843" lon="0.10839">
        <ele>1584</ele>
        <time>2019-04-04T07:15:17Z</time>
      </trkpt>
      <trkpt lat="42.89882" lon="0.10869">
        <ele>1594</ele>
        <time>2019-04-04T07:16:17Z</time>
      </trkpt>
      <trkpt lat="42.89898" lon="0.10878">
        <ele>1597</ele>
        <time>2019-04-04T07:17:17Z</time>
      </trkpt>
      <trkpt lat="42.89932" lon="0.10892">
        <ele>1603</ele>
        <time>2019-04-04T07:18:17Z</time>
      </trkpt>
      <trkpt lat="42.89968" lon="0.10889">
        <ele>1605</ele>
        <time>2019-04-04T07:19:17Z</time>
      </trkpt>
      <trkpt lat="42.9" lon="0.10892">
        <ele>1608</ele>
        <time>2019-04-04T07:20:17Z</time>
      </trkpt>
      <trkpt lat="42.90016" lon="0.1089">
        <ele>1609</ele>
        <time>2019-04-04T07:21:17Z</time>
      </trkpt>
      <trkpt lat="42.90106" lon="0.1086">
        <ele>1606</ele>
        <time>2019-04-04T07:22:17Z</time>
      </trkpt>
      <trkpt lat="42.90163" lon="0.10843">
        <ele>1616</ele>
        <time>2019-04-04T07:23:17Z</time>
      </trkpt>
      <trkpt lat="42.9021" lon="0.10833">
        <ele>1624</ele>
        <time>2019-04-04T07:24:17Z</time>
      </trkpt>
      <trkpt lat="42.9025" lon="0.10822">
        <ele>1629</ele>
        <time>2019-04-04T07:25:17Z</time>
      </trkpt>
      <trkpt lat="42.90278" lon="0.10816">
        <ele>1626</ele>
        <time>2019-04-04T07:26:17Z</time>
      </trkpt>
      <trkpt lat="42.90319" lon="0.10813">
        <ele>1624</ele>
        <time>2019-04-04T07:27:17Z</time>
      </trkpt>
      <trkpt lat="42.90327" lon="0.10815">
        <ele>1625</ele>
        <time>2019-04-04T07:28:17Z</time>
      </trkpt>
      <trkpt lat="42.90333" lon="0.10824">
        <ele>1629</ele>
        <time>2019-04-04T07:29:17Z</time>
      </trkpt>
      <trkpt lat="42.90371" lon="0.10909">
        <ele>1647</ele>
        <time>2019-04-04T07:30:17Z</time>
      </trkpt>
      <trkpt lat="42.90394" lon="0.10947">
        <ele>1648</ele>
        <time>2019-04-04T07:31:17Z</time>
      </trkpt>
      <trkpt lat="42.90398" lon="0.10958">
        <ele>1649</ele>
        <time>2019-04-04T07:32:17Z</time>
      </trkpt>
      <trkpt lat="42.90405" lon="0.10995">
        <ele>1654</ele>
        <time>2019-04-04T07:33:17Z</time>
      </trkpt>
      <trkpt lat="42.90447" lon="0.11148">
        <ele>1662</ele>
        <time>2019-04-04T07:34:17Z</time>
      </trkpt>
      <trkpt lat="42.90462" lon="0.11193">
        <ele>1665</ele>
        <time>2019-04-04T07:35:17Z</time>
      </trkpt>
      <trkpt lat="42.90473" lon="0.11237">
        <ele>1669</ele>
        <time>2019-04-04T07:36:17Z</time>
      </trkpt>
      <trkpt lat="42.9048" lon="0.11282">
        <ele>1674</ele>
        <time>2019-04-04T07:37:17Z</time>
      </trkpt>
      <trkpt lat="42.90484" lon="0.11298">
        <ele>1674</ele>
        <time>2019-04-04T07:38:17Z</time>
      </trkpt>
      <trkpt lat="42.90497" lon="0.11338">
        <ele>1674</ele>
        <time>2019-04-04T07:39:17Z</time>
      </trkpt>
      <trkpt lat="42.90518" lon="0.11379">
        <ele>1670</ele>
        <time>2019-04-04T07:40:17Z</time>
      </trkpt>
      <trkpt lat="42.90521" lon="0.11394">
        <ele>1671</ele>
        <time>2019-04-04T07:41:17Z</time>
      </trkpt>
      <trkpt lat="42.90521" lon="0.11634">
        <ele>1697</ele>
        <time>2019-04-04T07:42:17Z</time>
      </trkpt>
      <trkpt lat="42.90526" lon="0.11681">
        <ele>1697</ele>
        <time>2019-04-04T07:43:17Z</time>
      </trkpt>
      <trkpt lat="42.90525" lon="0.11713">
        <ele>1699</ele>
        <time>2019-04-04T07:44:17Z</time>
      </trkpt>
      <trkpt lat="42.90518" lon="0.11788">
        <ele>1708</ele>
        <time>2019-04-04T07:45:17Z</time>
      </trkpt>
      <trkpt lat="42.90533" lon="0.11849">
        <ele>1706</ele>
        <time>2019-04-04T07:46:17Z</time>
      </trkpt>
      <trkpt lat="42.9054" lon="0.11886">
        <ele>1708</ele>
        <time>2019-04-04T07:47:17Z</time>
      </trkpt>
      <trkpt lat="42.90537" lon="0.11914">
        <ele>1714</ele>
        <time>2019-04-04T07:48:17Z</time>
      </trkpt>
      <trkpt lat="42.90537" lon="0.11936">
        <ele>1718</ele>
        <time>2019-04-04T07:49:17Z</time>
      </trkpt>
      <trkpt lat="42.9054" lon="0.11997">
        <ele>1726</ele>
        <time>2019-04-04T07:50:17Z</time>
      </trkpt>
      <trkpt lat="42.90539" lon="0.1202">
        <ele>1726</ele>
        <time>2019-04-04T07:51:17Z</time>
      </trkpt>
      <trkpt lat="42.90535" lon="0.12037">
        <ele>1728</ele>
        <time>2019-04-04T07:52:17Z</time>
      </trkpt>
      <trkpt lat="42.90517" lon="0.12092">
        <ele>1733</ele>
        <time>2019-04-04T07:53:17Z</time>
      </trkpt>
      <trkpt lat="42.90508" lon="0.12106">
        <ele>1735</ele>
        <time>2019-04-04T07:54:17Z</time>
      </trkpt>
      <trkpt lat="42.90501" lon="0.12124">
        <ele>1734</ele>
        <time>2019-04-04T07:55:17Z</time>
      </trkpt>
      <trkpt lat="42.90481" lon="0.12207">
        <ele>1731</ele>
        <time>2019-04-04T07:56:17Z</time>
      </trkpt>
      <trkpt lat="42.90477" lon="0.12216">
        <ele>1732</ele>
        <time>2019-04-04T07:57:17Z</time>
      </trkpt>
      <trkpt lat="42.90465" lon="0.12231">
        <ele>1737</ele>
        <time>2019-04-04T07:58:17Z</time>
      </trkpt>
      <trkpt lat="42.90462" lon="0.12242">
        <ele>1738</ele>
        <time>2019-04-04T07:59:17Z</time>
      </trkpt>
      <trkpt lat="42.90463" lon="0.12275">
        <ele>1738</ele>
        <time>2019-04-04T08:00:17Z</time>
      </trkpt>
      <trkpt lat="42.9046" lon="0.12293">
        <ele>1739</ele>
        <time>2019-04-04T08:01:17Z</time>
      </trkpt>
      <trkpt lat="42.90418" lon="0.12454">
        <ele>1749</ele>
        <time>2019-04-04T08:02:17Z</time>
      </trkpt>
      <trkpt lat="42.90411" lon="0.12462">
        <ele>1753</ele>
        <time>2019-04-04T08:03:17Z</time>
      </trkpt>
      <trkpt lat="42.90398" lon="0.12471">
        <ele>1760</ele>
        <time>2019-04-04T08:04:17Z</time>
      </trkpt>
      <trkpt lat="42.90393" lon="0.12478">
        <ele>1763</ele>
        <time>2019-04-04T08:05:17Z</time>
      </trkpt>
      <trkpt lat="42.9039" lon="0.12487">
        <ele>1765</ele>
        <time>2019-04-04T08:06:17Z</time>
      </trkpt>
      <trkpt lat="42.90396" lon="0.12555">
        <ele>1767</ele>
        <time>2019-04-04T08:07:17Z</time>
      </trkpt>
      <trkpt lat="42.90387" lon="0.12603">
        <ele>1776</ele>
        <time>2019-04-04T08:08:17Z</time>
      </trkpt>
      <trkpt lat="42.90386" lon="0.12646">
        <ele>1780</ele>
        <time>2019-04-04T08:09:17Z</time>
      </trkpt>
      <trkpt lat="42.90381" lon="0.12655">
        <ele>1783</ele>
        <time>2019-04-04T08:10:17Z</time>
      </trkpt>
      <trkpt lat="42.90371" lon="0.1269">
        <ele>1787</ele>
        <time>2019-04-04T08:11:17Z</time>
      </trkpt>
      <trkpt lat="42.90371" lon="0.12703">
        <ele>1786</ele>
        <time>2019-04-04T08:12:17Z</time>
      </trkpt>
      <trkpt lat="42.90373" lon="0.12723">
        <ele>1785</ele>
        <time>2019-04-04T08:13:17Z</time>
      </trkpt>
      <trkpt lat="42.90372" lon="0.1274">
        <ele>1785</ele>
        <time>2019-04-04T08:14:17Z</time>
      </trkpt>
      <trkpt lat="42.90364" lon="0.12761">
        <ele>1788</ele>
        <time>2019-04-04T08:15:17Z</time>
      </trkpt>
      <trkpt lat="42.90358" lon="0.1278">
        <ele>1791</ele>
        <time>2019-04-04T08:16:17Z</time>
      </trkpt>
      <trkpt lat="42.90355" lon="0.12793">
        <ele>1793</ele>
        <time>2019-04-04T08:17:17Z</time>
      </trkpt>
      <trkpt lat="42.90357" lon="0.1281">
        <ele>1793</ele>
        <time>2019-04-04T08:18:17Z</time>
      </trkpt>
      <trkpt lat="42.90377" lon="0.12877">
        <ele>1788</ele>
        <time>2019-04-04T08:19:17Z</time>
      </trkpt>
      <trkpt lat="42.90377" lon="0.12906">
        <ele>1790</ele>
        <time>2019-04-04T08:20:17Z</time>
      </trkpt>
      <trkpt lat="42.90375" lon="0.12932">
        <ele>1790</ele>
        <time>2019-04-04T08:21:17Z</time>
      </trkpt>
      <trkpt lat="42.90373" lon="0.12944">
        <ele>1791</ele>
        <time>2019-04-04T08:22:17Z</time>
      </trkpt>
      <trkpt lat="42.90355" lon="0.12995">
        <ele>1796</ele>
        <time>2019-04-04T08:23:17Z</time>
      </trkpt>
      <trkpt lat="42.90338" lon="0.13054">
        <ele>1802</ele>
        <time>2019-04-04T08:24:17Z</time>
      </trkpt>
      <trkpt lat="42.90335" lon="0.13069">
        <ele>1803</ele>
        <time>2019-04-04T08:25:17Z</time>
      </trkpt>
      <trkpt lat="42.90334" lon="0.13084">
        <ele>1803</ele>
        <time>2019-04-04T08:26:17Z</time>
      </trkpt>
      <trkpt lat="42.90339" lon="0.13114">
        <ele>1799</ele>
        <time>2019-04-04T08:27:17Z</time>
      </trkpt>
      <trkpt lat="42.90337" lon="0.13128">
        <ele>1800</ele>
        <time>2019-04-04T08:28:17Z</time>
      </trkpt>
      <trkpt lat="42.90333" lon="0.13142">
        <ele>1802</ele>
        <time>2019-04-04T08:29:17Z</time>
      </trkpt>
      <trkpt lat="42.90327" lon="0.13151">
        <ele>1804</ele>
        <time>2019-04-04T08:30:17Z</time>
      </trkpt>
      <trkpt lat="42.90309" lon="0.13168">
        <ele>1810</ele>
        <time>2019-04-04T08:31:17Z</time>
      </trkpt>
      <trkpt lat="42.90281" lon="0.13213">
        <ele>1818</ele>
        <time>2019-04-04T08:32:17Z</time>
      </trkpt>
      <trkpt lat="42.90274" lon="0.13219">
        <ele>1820</ele>
        <time>2019-04-04T08:33:17Z</time>
      </trkpt>
      <trkpt lat="42.90267" lon="0.13224">
        <ele>1821</ele>
        <time>2019-04-04T08:34:17Z</time>
      </trkpt>
      <trkpt lat="42.90229" lon="0.13234">
        <ele>1826</ele>
        <time>2019-04-04T08:35:17Z</time>
      </trkpt>
      <trkpt lat="42.90202" lon="0.13236">
        <ele>1827</ele>
        <time>2019-04-04T08:36:17Z</time>
      </trkpt>
      <trkpt lat="42.90197" lon="0.1324">
        <ele>1827</ele>
        <time>2019-04-04T08:37:17Z</time>
      </trkpt>
      <trkpt lat="42.90193" lon="0.13248">
        <ele>1827</ele>
        <time>2019-04-04T08:38:17Z</time>
      </trkpt>
      <trkpt lat="42.90192" lon="0.13258">
        <ele>1828</ele>
        <time>2019-04-04T08:39:17Z</time>
      </trkpt>
      <trkpt lat="42.90193" lon="0.13267">
        <ele>1829</ele>
        <time>2019-04-04T08:40:17Z</time>
      </trkpt>
      <trkpt lat="42.90219" lon="0.13336">
        <ele>1835</ele>
        <time>2019-04-04T08:41:17Z</time>
      </trkpt>
      <trkpt lat="42.90222" lon="0.13359">
        <ele>1838</ele>
        <time>2019-04-04T08:42:17Z</time>
      </trkpt>
      <trkpt lat="42.90222" lon="0.13381">
        <ele>1841</ele>
        <time>2019-04-04T08:43:17Z</time>
      </trkpt>
      <trkpt lat="42.90226" lon="0.13393">
        <ele>1842</ele>
        <time>2019-04-04T08:44:17Z</time>
      </trkpt>
      <trkpt lat="42.90233" lon="0.13401">
        <ele>1841</ele>
        <time>2019-04-04T08:45:17Z</time>
      </trkpt>
      <trkpt lat="42.90257" lon="0.13411">
        <ele>1837</ele>
        <time>2019-04-04T08:46:17Z</time>
      </trkpt>
      <trkpt lat="42.90264" lon="0.13419">
        <ele>1838</ele>
        <time>2019-04-04T08:47:17Z</time>
      </trkpt>
      <trkpt lat="42.90277" lon="0.13453">
        <ele>1844</ele>
        <time>2019-04-04T08:48:17Z</time>
      </trkpt>
      <trkpt lat="42.90279" lon="0.13466">
        <ele>1846</ele>
        <time>2019-04-04T08:49:17Z</time>
      </trkpt>
      <trkpt lat="42.90277" lon="0.1348">
        <ele>1850</ele>
        <time>2019-04-04T08:50:17Z</time>
      </trkpt>
      <trkpt lat="42.90271" lon="0.13506">
        <ele>1857</ele>
        <time>2019-04-04T08:51:17Z</time>
      </trkpt>
      <trkpt lat="42.90272" lon="0.13522">
        <ele>1858</ele>
        <time>2019-04-04T08:52:17Z</time>
      </trkpt>
      <trkpt lat="42.90283" lon="0.13566">
        <ele>1859</ele>
        <time>2019-04-04T08:53:17Z</time>
      </trkpt>
      <trkpt lat="42.90287" lon="0.13599">
        <ele>1861</ele>
        <time>2019-04-04T08:54:17Z</time>
      </trkpt>
      <trkpt lat="42.9029" lon="0.13606">
        <ele>1862</ele>
        <time>2019-04-04T08:55:17Z</time>
      </trkpt>
      <trkpt lat="42.90299" lon="0.1361">
        <ele>1861</ele>
        <time>2019-04-04T08:56:17Z</time>
      </trkpt>
      <trkpt lat="42.90318" lon="0.13612">
        <ele>1857</ele>
        <time>2019-04-04T08:57:17Z</time>
      </trkpt>
      <trkpt lat="42.90331" lon="0.13619">
        <ele>1856</ele>
        <time>2019-04-04T08:58:17Z</time>
      </trkpt>
      <trkpt lat="42.9035" lon="0.13638">
        <ele>1854</ele>
        <time>2019-04-04T08:59:17Z</time>
      </trkpt>
      <trkpt lat="42.90357" lon="0.13651">
        <ele>1854</ele>
        <time>2019-04-04T09:00:17Z</time>
      </trkpt>
      <trkpt lat="42.90365" lon="0.1368">
        <ele>1857</ele>
        <time>2019-04-04T09:01:17Z</time>
      </trkpt>
      <trkpt lat="42.9037" lon="0.13688">
        <ele>1858</ele>
        <time>2019-04-04T09:02:17Z</time>
      </trkpt>
      <trkpt lat="42.90389" lon="0.13699">
        <ele>1857</ele>
        <time>2019-04-04T09:03:17Z</time>
      </trkpt>
      <trkpt lat="42.90407" lon="0.13707">
        <ele>1857</ele>
        <time>2019-04-04T09:04:17Z</time>
      </trkpt>
      <trkpt lat="42.9042" lon="0.13711">
        <ele>1857</ele>
        <time>2019-04-04T09:05:17Z</time>
      </trkpt>
      <trkpt lat="42.90438" lon="0.13714">
        <ele>1858</ele>
        <time>2019-04-04T09:06:17Z</time>
      </trkpt>
      <trkpt lat="42.90448" lon="0.13714">
        <ele>1858</ele>
        <time>2019-04-04T09:07:17Z</time>
      </trkpt>
      <trkpt lat="42.90469" lon="0.13709">
        <ele>1857</ele>
        <time>2019-04-04T09:08:17Z</time>
      </trkpt>
      <trkpt lat="42.90485" lon="0.13711">
        <ele>1858</ele>
        <time>2019-04-04T09:09:17Z</time>
      </trkpt>
      <trkpt lat="42.90497" lon="0.13722">
        <ele>1862</ele>
        <time>2019-04-04T09:10:17Z</time>
      </trkpt>
      <trkpt lat="42.90513" lon="0.13741">
        <ele>1866</ele>
        <time>2019-04-04T09:11:17Z</time>
      </trkpt>
      <trkpt lat="42.90526" lon="0.13761">
        <ele>1870</ele>
        <time>2019-04-04T09:12:17Z</time>
      </trkpt>
      <trkpt lat="42.90531" lon="0.13776">
        <ele>1873</ele>
        <time>2019-04-04T09:13:17Z</time>
      </trkpt>
      <trkpt lat="42.9054" lon="0.13793">
        <ele>1877</ele>
        <time>2019-04-04T09:14:17Z</time>
      </trkpt>
      <trkpt lat="42.90576" lon="0.13827">
        <ele>1886</ele>
        <time>2019-04-04T09:15:17Z</time>
      </trkpt>
      <trkpt lat="42.90609" lon="0.13843">
        <ele>1890</ele>
        <time>2019-04-04T09:16:17Z</time>
      </trkpt>
      <trkpt lat="42.90619" lon="0.13857">
        <ele>1894</ele>
        <time>2019-04-04T09:17:17Z</time>
      </trkpt>
      <trkpt lat="42.90629" lon="0.13864">
        <ele>1896</ele>
        <time>2019-04-04T09:18:17Z</time>
      </trkpt>
      <trkpt lat="42.90641" lon="0.13869">
        <ele>1897</ele>
        <time>2019-04-04T09:19:17Z</time>
      </trkpt>
      <trkpt lat="42.90655" lon="0.1387">
        <ele>1898</ele>
        <time>2019-04-04T09:20:17Z</time>
      </trkpt>
      <trkpt lat="42.90694" lon="0.13858">
        <ele>1899</ele>
        <time>2019-04-04T09:21:17Z</time>
      </trkpt>
      <trkpt lat="42.90706" lon="0.13856">
        <ele>1901</ele>
        <time>2019-04-04T09:22:17Z</time>
      </trkpt>
      <trkpt lat="42.90728" lon="0.1386">
        <ele>1906</ele>
        <time>2019-04-04T09:23:17Z</time>
      </trkpt>
      <trkpt lat="42.90738" lon="0.13859">
        <ele>1908</ele>
        <time>2019-04-04T09:24:17Z</time>
      </trkpt>
      <trkpt lat="42.90755" lon="0.13846">
        <ele>1907</ele>
        <time>2019-04-04T09:25:17Z</time>
      </trkpt>
      <trkpt lat="42.90783" lon="0.1381">
        <ele>1903</ele>
        <time>2019-04-04T09:26:17Z</time>
      </trkpt>
      <trkpt lat="42.90824" lon="0.13785">
        <ele>1905</ele>
        <time>2019-04-04T09:27:17Z</time>
      </trkpt>
      <trkpt lat="42.90836" lon="0.1378">
        <ele>1905</ele>
        <time>2019-04-04T09:28:17Z</time>
      </trkpt>
      <trkpt lat="42.9086" lon="0.13779">
        <ele>1908</ele>
        <time>2019-04-04T09:29:17Z</time>
      </trkpt>
      <trkpt lat="42.90892" lon="0.13781">
        <ele>1914</ele>
        <time>2019-04-04T09:30:17Z</time>
      </trkpt>
      <trkpt lat="42.90932" lon="0.13796">
        <ele>1925</ele>
        <time>2019-04-04T09:31:17Z</time>
      </trkpt>
      <trkpt lat="42.90954" lon="0.138">
        <ele>1926</ele>
        <time>2019-04-04T09:32:17Z</time>
      </trkpt>
      <trkpt lat="42.90982" lon="0.13801">
        <ele>1926</ele>
        <time>2019-04-04T09:33:17Z</time>
      </trkpt>
      <trkpt lat="42.91015" lon="0.13805">
        <ele>1927</ele>
        <time>2019-04-04T09:34:17Z</time>
      </trkpt>
      <trkpt lat="42.91044" lon="0.13803">
        <ele>1925</ele>
        <time>2019-04-04T09:35:17Z</time>
      </trkpt>
      <trkpt lat="42.91055" lon="0.13804">
        <ele>1925</ele>
        <time>2019-04-04T09:36:17Z</time>
      </trkpt>
      <trkpt lat="42.91065" lon="0.1381">
        <ele>1927</ele>
        <time>2019-04-04T09:37:17Z</time>
      </trkpt>
      <trkpt lat="42.91089" lon="0.13853">
        <ele>1946</ele>
        <time>2019-04-04T09:38:17Z</time>
      </trkpt>
      <trkpt lat="42.91093" lon="0.13856">
        <ele>1947</ele>
        <time>2019-04-04T09:39:17Z</time>
      </trkpt>
      <trkpt lat="42.91101" lon="0.13857">
        <ele>1948</ele>
        <time>2019-04-04T09:40:17Z</time>
      </trkpt>
      <trkpt lat="42.91106" lon="0.13854">
        <ele>1947</ele>
        <time>2019-04-04T09:41:17Z</time>
      </trkpt>
      <trkpt lat="42.91124" lon="0.13826">
        <ele>1935</ele>
        <time>2019-04-04T09:42:17Z</time>
      </trkpt>
      <trkpt lat="42.91148" lon="0.13797">
        <ele>1921</ele>
        <time>2019-04-04T09:43:17Z</time>
      </trkpt>
      <trkpt lat="42.91158" lon="0.13789">
        <ele>1918</ele>
        <time>2019-04-04T09:44:17Z</time>
      </trkpt>
      <trkpt lat="42.91186" lon="0.13783">
        <ele>1921</ele>
        <time>2019-04-04T09:45:17Z</time>
      </trkpt>
      <trkpt lat="42.91206" lon="0.13786">
        <ele>1929</ele>
        <time>2019-04-04T09:46:17Z</time>
      </trkpt>
      <trkpt lat="42.91216" lon="0.13785">
        <ele>1932</ele>
        <time>2019-04-04T09:47:17Z</time>
      </trkpt>
      <trkpt lat="42.9123" lon="0.1378">
        <ele>1935</ele>
        <time>2019-04-04T09:48:17Z</time>
      </trkpt>
      <trkpt lat="42.91252" lon="0.13766">
        <ele>1936</ele>
        <time>2019-04-04T09:49:17Z</time>
      </trkpt>
      <trkpt lat="42.9126" lon="0.13758">
        <ele>1936</ele>
        <time>2019-04-04T09:50:17Z</time>
      </trkpt>
      <trkpt lat="42.91272" lon="0.13739">
        <ele>1932</ele>
        <time>2019-04-04T09:51:17Z</time>
      </trkpt>
      <trkpt lat="42.91284" lon="0.13708">
        <ele>1925</ele>
        <time>2019-04-04T09:52:17Z</time>
      </trkpt>
      <trkpt lat="42.91291" lon="0.13695">
        <ele>1923</ele>
        <time>2019-04-04T09:53:17Z</time>
      </trkpt>
      <trkpt lat="42.91304" lon="0.13681">
        <ele>1923</ele>
        <time>2019-04-04T09:54:17Z</time>
      </trkpt>
      <trkpt lat="42.91321" lon="0.13675">
        <ele>1927</ele>
        <time>2019-04-04T09:55:17Z</time>
      </trkpt>
      <trkpt lat="42.91329" lon="0.13677">
        <ele>1931</ele>
        <time>2019-04-04T09:56:17Z</time>
      </trkpt>
      <trkpt lat="42.91335" lon="0.13683">
        <ele>1935</ele>
        <time>2019-04-04T09:57:17Z</time>
      </trkpt>
      <trkpt lat="42.91338" lon="0.13692">
        <ele>1939</ele>
        <time>2019-04-04T09:58:17Z</time>
      </trkpt>
      <trkpt lat="42.9134" lon="0.13701">
        <ele>1942</ele>
        <time>2019-04-04T09:59:17Z</time>
      </trkpt>
      <trkpt lat="42.91338" lon="0.13709">
        <ele>1944</ele>
        <time>2019-04-04T10:00:17Z</time>
      </trkpt>
      <trkpt lat="42.91333" lon="0.13716">
        <ele>1945</ele>
        <time>2019-04-04T10:01:17Z</time>
      </trkpt>
      <trkpt lat="42.91299" lon="0.13738">
        <ele>1941</ele>
        <time>2019-04-04T10:02:17Z</time>
      </trkpt>
      <trkpt lat="42.91291" lon="0.13746">
        <ele>1941</ele>
        <time>2019-04-04T10:03:17Z</time>
      </trkpt>
      <trkpt lat="42.91272" lon="0.13783">
        <ele>1951</ele>
        <time>2019-04-04T10:04:17Z</time>
      </trkpt>
      <trkpt lat="42.91258" lon="0.13805">
        <ele>1955</ele>
        <time>2019-04-04T10:05:17Z</time>
      </trkpt>
      <trkpt lat="42.91249" lon="0.13815">
        <ele>1955</ele>
        <time>2019-04-04T10:06:17Z</time>
      </trkpt>
      <trkpt lat="42.91229" lon="0.13828">
        <ele>1955</ele>
        <time>2019-04-04T10:07:17Z</time>
      </trkpt>
      <trkpt lat="42.91211" lon="0.13836">
        <ele>1954</ele>
        <time>2019-04-04T10:08:17Z</time>
      </trkpt>
      <trkpt lat="42.91181" lon="0.13843">
        <ele>1949</ele>
        <time>2019-04-04T10:09:17Z</time>
      </trkpt>
      <trkpt lat="42.91171" lon="0.13851">
        <ele>1951</ele>
        <time>2019-04-04T10:10:17Z</time>
      </trkpt>
      <trkpt lat="42.91139" lon="0.13912">
        <ele>1981</ele>
        <time>2019-04-04T10:11:17Z</time>
      </trkpt>
      <trkpt lat="42.91129" lon="0.13941">
        <ele>1996</ele>
        <time>2019-04-04T10:12:17Z</time>
      </trkpt>
      <trkpt lat="42.91122" lon="0.13948">
        <ele>1999</ele>
        <time>2019-04-04T10:13:17Z</time>
      </trkpt>
      <trkpt lat="42.91115" lon="0.13951">
        <ele>1999</ele>
        <time>2019-04-04T10:14:17Z</time>
      </trkpt>
      <trkpt lat="42.91087" lon="0.13948">
        <ele>1992</ele>
        <time>2019-04-04T10:15:17Z</time>
      </trkpt>
      <trkpt lat="42.91052" lon="0.13938">
        <ele>1989</ele>
        <time>2019-04-04T10:16:17Z</time>
      </trkpt>
      <trkpt lat="42.91007" lon="0.13932">
        <ele>1993</ele>
        <time>2019-04-04T10:17:17Z</time>
      </trkpt>
      <trkpt lat="42.90982" lon="0.13937">
        <ele>1997</ele>
        <time>2019-04-04T10:18:17Z</time>
      </trkpt>
      <trkpt lat="42.9095" lon="0.13932">
        <ele>1997</ele>
        <time>2019-04-04T10:19:17Z</time>
      </trkpt>
      <trkpt lat="42.90917" lon="0.13937">
        <ele>2001</ele>
        <time>2019-04-04T10:20:17Z</time>
      </trkpt>
      <trkpt lat="42.90906" lon="0.13941">
        <ele>2000</ele>
        <time>2019-04-04T10:21:17Z</time>
      </trkpt>
      <trkpt lat="42.90875" lon="0.13966">
        <ele>2000</ele>
        <time>2019-04-04T10:22:17Z</time>
      </trkpt>
      <trkpt lat="42.90843" lon="0.14009">
        <ele>2005</ele>
        <time>2019-04-04T10:23:17Z</time>
      </trkpt>
      <trkpt lat="42.90829" lon="0.14017">
        <ele>2003</ele>
        <time>2019-04-04T10:24:17Z</time>
      </trkpt>
      <trkpt lat="42.90809" lon="0.14035">
        <ele>2004</ele>
        <time>2019-04-04T10:25:17Z</time>
      </trkpt>
      <trkpt lat="42.90791" lon="0.14065">
        <ele>2011</ele>
        <time>2019-04-04T10:26:17Z</time>
      </trkpt>
      <trkpt lat="42.90774" lon="0.14082">
        <ele>2012</ele>
        <time>2019-04-04T10:27:17Z</time>
      </trkpt>
      <trkpt lat="42.90744" lon="0.14128">
        <ele>2015</ele>
        <time>2019-04-04T10:28:17Z</time>
      </trkpt>
      <trkpt lat="42.90737" lon="0.14147">
        <ele>2017</ele>
        <time>2019-04-04T10:29:17Z</time>
      </trkpt>
      <trkpt lat="42.90723" lon="0.14199">
        <ele>2021</ele>
        <time>2019-04-04T10:30:17Z</time>
      </trkpt>
      <trkpt lat="42.90717" lon="0.14242">
        <ele>2023</ele>
        <time>2019-04-04T10:31:17Z</time>
      </trkpt>
      <trkpt lat="42.9072" lon="0.14261">
        <ele>2027</ele>
        <time>2019-04-04T10:32:17Z</time>
      </trkpt>
      <trkpt lat="42.90729" lon="0.1428">
        <ele>2034</ele>
        <time>2019-04-04T10:33:17Z</time>
      </trkpt>
      <trkpt lat="42.90742" lon="0.14313">
        <ele>2043</ele>
        <time>2019-04-04T10:34:17Z</time>
      </trkpt>
      <trkpt lat="42.90746" lon="0.14333">
        <ele>2046</ele>
        <time>2019-04-04T10:35:17Z</time>
      </trkpt>
      <trkpt lat="42.90748" lon="0.14362">
        <ele>2053</ele>
        <time>2019-04-04T10:36:17Z</time>
      </trkpt>
      <trkpt lat="42.90746" lon="0.14379">
        <ele>2056</ele>
        <time>2019-04-04T10:37:17Z</time>
      </trkpt>
      <trkpt lat="42.90739" lon="0.1439">
        <ele>2057</ele>
        <time>2019-04-04T10:38:17Z</time>
      </trkpt>
      <trkpt lat="42.90715" lon="0.14407">
        <ele>2053</ele>
        <time>2019-04-04T10:39:17Z</time>
      </trkpt>
      <trkpt lat="42.90699" lon="0.14422">
        <ele>2054</ele>
        <time>2019-04-04T10:40:17Z</time>
      </trkpt>
      <trkpt lat="42.90679" lon="0.14435">
        <ele>2054</ele>
        <time>2019-04-04T10:41:17Z</time>
      </trkpt>
      <trkpt lat="42.90646" lon="0.14451">
        <ele>2051</ele>
        <time>2019-04-04T10:42:17Z</time>
      </trkpt>
      <trkpt lat="42.90635" lon="0.14459">
        <ele>2051</ele>
        <time>2019-04-04T10:43:17Z</time>
      </trkpt>
      <trkpt lat="42.90626" lon="0.1447">
        <ele>2052</ele>
        <time>2019-04-04T10:44:17Z</time>
      </trkpt>
      <trkpt lat="42.90605" lon="0.1452">
        <ele>2061</ele>
        <time>2019-04-04T10:45:17Z</time>
      </trkpt>
      <trkpt lat="42.90594" lon="0.14568">
        <ele>2071</ele>
        <time>2019-04-04T10:46:17Z</time>
      </trkpt>
      <trkpt lat="42.90587" lon="0.14586">
        <ele>2073</ele>
        <time>2019-04-04T10:47:17Z</time>
      </trkpt>
      <trkpt lat="42.90558" lon="0.14634">
        <ele>2082</ele>
        <time>2019-04-04T10:48:17Z</time>
      </trkpt>
      <trkpt lat="42.90547" lon="0.14641">
        <ele>2081</ele>
        <time>2019-04-04T10:49:17Z</time>
      </trkpt>
      <trkpt lat="42.90518" lon="0.14653">
        <ele>2079</ele>
        <time>2019-04-04T10:50:17Z</time>
      </trkpt>
      <trkpt lat="42.90516" lon="0.14658">
        <ele>2080</ele>
        <time>2019-04-04T10:51:17Z</time>
      </trkpt>
      <trkpt lat="42.90517" lon="0.14665">
        <ele>2083</ele>
        <time>2019-04-04T10:52:17Z</time>
      </trkpt>
      <trkpt lat="42.9052" lon="0.1467">
        <ele>2086</ele>
        <time>2019-04-04T10:53:17Z</time>
      </trkpt>
      <trkpt lat="42.90523" lon="0.14671">
        <ele>2086</ele>
        <time>2019-04-04T10:54:17Z</time>
      </trkpt>
      <trkpt lat="42.90563" lon="0.14655">
        <ele>2090</ele>
        <time>2019-04-04T10:55:17Z</time>
      </trkpt>
      <trkpt lat="42.9058" lon="0.1464">
        <ele>2089</ele>
        <time>2019-04-04T10:56:17Z</time>
      </trkpt>
      <trkpt lat="42.90611" lon="0.146">
        <ele>2087</ele>
        <time>2019-04-04T10:57:17Z</time>
      </trkpt>
      <trkpt lat="42.9063" lon="0.14583">
        <ele>2092</ele>
        <time>2019-04-04T10:58:17Z</time>
      </trkpt>
      <trkpt lat="42.90663" lon="0.14559">
        <ele>2098</ele>
        <time>2019-04-04T10:59:17Z</time>
      </trkpt>
      <trkpt lat="42.90682" lon="0.14528">
        <ele>2092</ele>
        <time>2019-04-04T11:00:17Z</time>
      </trkpt>
      <trkpt lat="42.90695" lon="0.14519">
        <ele>2093</ele>
        <time>2019-04-04T11:01:17Z</time>
      </trkpt>
      <trkpt lat="42.90737" lon="0.14511">
        <ele>2101</ele>
        <time>2019-04-04T11:02:17Z</time>
      </trkpt>
      <trkpt lat="42.90747" lon="0.14511">
        <ele>2104</ele>
        <time>2019-04-04T11:03:17Z</time>
      </trkpt>
      <trkpt lat="42.9078" lon="0.1452">
        <ele>2111</ele>
        <time>2019-04-04T11:04:17Z</time>
      </trkpt>
      <trkpt lat="42.90792" lon="0.14517">
        <ele>2112</ele>
        <time>2019-04-04T11:05:17Z</time>
      </trkpt>
      <trkpt lat="42.90803" lon="0.1451">
        <ele>2112</ele>
        <time>2019-04-04T11:06:17Z</time>
      </trkpt>
      <trkpt lat="42.90824" lon="0.14508">
        <ele>2115</ele>
        <time>2019-04-04T11:07:17Z</time>
      </trkpt>
      <trkpt lat="42.90839" lon="0.14528">
        <ele>2118</ele>
        <time>2019-04-04T11:08:17Z</time>
      </trkpt>
      <trkpt lat="42.90859" lon="0.14576">
        <ele>2120</ele>
        <time>2019-04-04T11:09:17Z</time>
      </trkpt>
    </trkseg>
  </trk>
</gpx>